<?xml version="1.0" encoding="UTF-8" standalone="no" ?>
<gpx xmlns="http://www.topografix.com/GPX/1/1" xmlns:xsi="http://www.w3.org/2001/XMLSchema-instance" xsi:schemaLocation="http://www.topografix.com/GPX/1/1 http://www.topografix.com/GPX/1/1/gpx.xsd" version="1.1" creator="VisuGPX - https://www.visugpx.com">
  <metadata>
    <name>2023-09-07 J3</name>
    <desc><![CDATA[LeBouchet-Pradelles 22.4km 07/09/23]]></desc>
  </metadata>
  <wpt lat="44.89096" lon="3.79512">
    <ele>1213.3</ele>
    <name><![CDATA[0001384]]></name>
    <type><![CDATA[Point de départ]]></type>
  </wpt>
  <wpt lat="44.80453" lon="3.83652">
    <ele>1101.6</ele>
    <name><![CDATA[0001385]]></name>
    <desc><![CDATA[<p><br /><h3>Nom: Segment: 1</h3><br />Heure de départ: 09/07/2023 08:08<br/>Heure d'arrivée: 09/07/2023 12:35<br/>Distance: 15,3km (04:27)<br/>Temps déplacement: 03:14<br/>Vitesse moyenne: 3,42 km/h<br/>Vitesse moyenne mouv.: 4,44 km/h<br/>Vitesse Max.: 7,45 km/h<br/>Altitude minimale: 979 m<br/>Altitude maximale: 1221 m<br/>Vitesse de montée: 134,8 m/h<br/>Vitesse de descente: -187,9 m/h<br/>Gain d'altitude: 251 m<br/>Perte d'altitude: -368 m<br/>Temps de montée: 01:52<br/>Temps de descente: 01:57<br/></p>]]></desc>
    <type><![CDATA[Point d'arrivée]]></type>
  </wpt>
  <wpt lat="44.80461" lon="3.83641">
    <ele>1101.3</ele>
    <name><![CDATA[0001386]]></name>
    <type><![CDATA[Point de départ]]></type>
  </wpt>
  <wpt lat="44.78023" lon="3.89271">
    <ele>1241.1</ele>
    <name><![CDATA[0001387]]></name>
    <desc><![CDATA[<p><br /><h3>Nom: Segment: 2</h3><br />Heure de départ: 09/07/2023 13:44<br/>Heure d'arrivée: 09/07/2023 16:24<br/>Distance: 7,2km (02:40)<br/>Temps déplacement: 01:45<br/>Vitesse moyenne: 2,68 km/h<br/>Vitesse moyenne mouv.: 3,99 km/h<br/>Vitesse Max.: 9,82 km/h<br/>Altitude minimale: 1104 m<br/>Altitude maximale: 1312 m<br/>Vitesse de montée: 150,4 m/h<br/>Vitesse de descente: -279,9 m/h<br/>Gain d'altitude: 309 m<br/>Perte d'altitude: -157 m<br/>Temps de montée: 02:03<br/>Temps de descente: 00:33<br/></p>]]></desc>
    <type><![CDATA[Point d'arrivée]]></type>
  </wpt>
  <wpt lat="45.0432" lon="3.88663">
    <ele>625.2</ele>
    <name><![CDATA[2 - StevensonJ3]]></name>
  </wpt>
  <wpt lat="45.0431" lon="3.88652">
    <ele>624.6</ele>
    <name><![CDATA[3 - StevensonJ3]]></name>
  </wpt>
  <wpt lat="44.7274" lon="3.855">
    <ele>917.6</ele>
    <name><![CDATA[4 - StevensonJ3]]></name>
  </wpt>
  <wpt lat="44.6492" lon="3.89027">
    <ele>1001.6</ele>
    <name><![CDATA[5 - StevensonJ3]]></name>
  </wpt>
  <wpt lat="44.3289" lon="3.59165">
    <ele>542</ele>
    <name><![CDATA[6 - StevensonJ3]]></name>
  </wpt>
  <trk>
    <name><![CDATA[2023-09-07 08:07]]></name>
    <desc><![CDATA[<p>Heure de départ: 09/07/2023 08:08<br/>Heure d'arrivée: 09/07/2023 16:24<br/>Distance: 22,4 km (07:08)<br/>Temps déplacement: 05:00<br/>Vitesse moyenne: 3,15 km/h<br/>Vitesse moyenne mouv.: 4,49 km/h<br/>Vitesse Max.: 9,82 km/h<br/>Altitude minimale: 979 m<br/>Altitude maximale: 1312 m<br/>Vitesse de montée: 121,4 m/h<br/>Vitesse de descente: -173,2 m/h<br/>Gain d'altitude: 507 m<br/>Perte d'altitude: -471 m<br/>Temps de montée: 04:10<br/>Temps de descente: 02:43<br/></p><hr align="center" width="480" style="height: 2px; width: 517px"/>]]></desc>
    <extensions>
      <line xmlns="http://www.topografix.com/GPX/gpx_style/0/2">
        <color>0000FF</color>
        <width>4</width>
      </line>
    </extensions>
    <trkseg>
      <trkpt lat="44.89096" lon="3.79512">
        <ele>1215.44</ele>
        <time>2023-09-07T06:08:00Z</time>
      </trkpt>
      <trkpt lat="44.89081" lon="3.79492">
        <ele>1214.44</ele>
        <time>2023-09-07T06:08:20Z</time>
      </trkpt>
      <trkpt lat="44.89061" lon="3.79481">
        <ele>1214.44</ele>
        <time>2023-09-07T06:08:36Z</time>
      </trkpt>
      <trkpt lat="44.89044" lon="3.7949">
        <ele>1214.44</ele>
        <time>2023-09-07T06:08:52Z</time>
      </trkpt>
      <trkpt lat="44.89049" lon="3.79463">
        <ele>1214.44</ele>
        <time>2023-09-07T06:09:16Z</time>
      </trkpt>
      <trkpt lat="44.8905" lon="3.79434">
        <ele>1215.44</ele>
        <time>2023-09-07T06:09:32Z</time>
      </trkpt>
      <trkpt lat="44.89051" lon="3.79406">
        <ele>1214.44</ele>
        <time>2023-09-07T06:09:48Z</time>
      </trkpt>
      <trkpt lat="44.89051" lon="3.79379">
        <ele>1213.44</ele>
        <time>2023-09-07T06:10:04Z</time>
      </trkpt>
      <trkpt lat="44.89043" lon="3.79346">
        <ele>1214.44</ele>
        <time>2023-09-07T06:10:24Z</time>
      </trkpt>
      <trkpt lat="44.89039" lon="3.79319">
        <ele>1214.44</ele>
        <time>2023-09-07T06:10:40Z</time>
      </trkpt>
      <trkpt lat="44.89032" lon="3.79288">
        <ele>1215.44</ele>
        <time>2023-09-07T06:11:00Z</time>
      </trkpt>
      <trkpt lat="44.89026" lon="3.79261">
        <ele>1217.44</ele>
        <time>2023-09-07T06:11:16Z</time>
      </trkpt>
      <trkpt lat="44.89018" lon="3.79235">
        <ele>1217.44</ele>
        <time>2023-09-07T06:11:32Z</time>
      </trkpt>
      <trkpt lat="44.89011" lon="3.79211">
        <ele>1216.44</ele>
        <time>2023-09-07T06:11:48Z</time>
      </trkpt>
      <trkpt lat="44.89004" lon="3.79187">
        <ele>1215.44</ele>
        <time>2023-09-07T06:12:04Z</time>
      </trkpt>
      <trkpt lat="44.88997" lon="3.79161">
        <ele>1217.44</ele>
        <time>2023-09-07T06:12:20Z</time>
      </trkpt>
      <trkpt lat="44.88989" lon="3.79138">
        <ele>1220.44</ele>
        <time>2023-09-07T06:12:36Z</time>
      </trkpt>
      <trkpt lat="44.88978" lon="3.79111">
        <ele>1221.44</ele>
        <time>2023-09-07T06:12:56Z</time>
      </trkpt>
      <trkpt lat="44.88965" lon="3.79087">
        <ele>1218.44</ele>
        <time>2023-09-07T06:13:16Z</time>
      </trkpt>
      <trkpt lat="44.88948" lon="3.79077">
        <ele>1218.44</ele>
        <time>2023-09-07T06:13:32Z</time>
      </trkpt>
      <trkpt lat="44.88926" lon="3.7907">
        <ele>1218.44</ele>
        <time>2023-09-07T06:13:52Z</time>
      </trkpt>
      <trkpt lat="44.88909" lon="3.79053">
        <ele>1219.44</ele>
        <time>2023-09-07T06:14:12Z</time>
      </trkpt>
      <trkpt lat="44.8889" lon="3.7905">
        <ele>1217.44</ele>
        <time>2023-09-07T06:14:32Z</time>
      </trkpt>
      <trkpt lat="44.88873" lon="3.79037">
        <ele>1218.44</ele>
        <time>2023-09-07T06:14:48Z</time>
      </trkpt>
      <trkpt lat="44.88853" lon="3.79029">
        <ele>1217.44</ele>
        <time>2023-09-07T06:15:04Z</time>
      </trkpt>
      <trkpt lat="44.88835" lon="3.79019">
        <ele>1217.44</ele>
        <time>2023-09-07T06:15:20Z</time>
      </trkpt>
      <trkpt lat="44.88822" lon="3.79001">
        <ele>1215.44</ele>
        <time>2023-09-07T06:15:40Z</time>
      </trkpt>
      <trkpt lat="44.88806" lon="3.79016">
        <ele>1219.44</ele>
        <time>2023-09-07T06:17:00Z</time>
      </trkpt>
      <trkpt lat="44.88788" lon="3.79004">
        <ele>1217.44</ele>
        <time>2023-09-07T06:18:00Z</time>
      </trkpt>
      <trkpt lat="44.88774" lon="3.79023">
        <ele>1217.44</ele>
        <time>2023-09-07T06:18:24Z</time>
      </trkpt>
      <trkpt lat="44.88753" lon="3.79025">
        <ele>1218.44</ele>
        <time>2023-09-07T06:18:44Z</time>
      </trkpt>
      <trkpt lat="44.88734" lon="3.7903">
        <ele>1218.44</ele>
        <time>2023-09-07T06:19:04Z</time>
      </trkpt>
      <trkpt lat="44.88715" lon="3.79036">
        <ele>1218.44</ele>
        <time>2023-09-07T06:19:20Z</time>
      </trkpt>
      <trkpt lat="44.88696" lon="3.79035">
        <ele>1218.44</ele>
        <time>2023-09-07T06:19:36Z</time>
      </trkpt>
      <trkpt lat="44.88676" lon="3.79035">
        <ele>1221.44</ele>
        <time>2023-09-07T06:19:52Z</time>
      </trkpt>
      <trkpt lat="44.88654" lon="3.79043">
        <ele>1219.44</ele>
        <time>2023-09-07T06:20:12Z</time>
      </trkpt>
      <trkpt lat="44.88632" lon="3.79047">
        <ele>1217.44</ele>
        <time>2023-09-07T06:20:33Z</time>
      </trkpt>
      <trkpt lat="44.88609" lon="3.79051">
        <ele>1217.44</ele>
        <time>2023-09-07T06:20:54Z</time>
      </trkpt>
      <trkpt lat="44.8859" lon="3.79053">
        <ele>1219.44</ele>
        <time>2023-09-07T06:21:10Z</time>
      </trkpt>
      <trkpt lat="44.88569" lon="3.79055">
        <ele>1218.44</ele>
        <time>2023-09-07T06:21:46Z</time>
      </trkpt>
      <trkpt lat="44.88549" lon="3.79056">
        <ele>1220.44</ele>
        <time>2023-09-07T06:22:14Z</time>
      </trkpt>
      <trkpt lat="44.88532" lon="3.79063">
        <ele>1219.44</ele>
        <time>2023-09-07T06:22:30Z</time>
      </trkpt>
      <trkpt lat="44.88508" lon="3.79068">
        <ele>1220.44</ele>
        <time>2023-09-07T06:22:50Z</time>
      </trkpt>
      <trkpt lat="44.88488" lon="3.79071">
        <ele>1219.44</ele>
        <time>2023-09-07T06:23:06Z</time>
      </trkpt>
      <trkpt lat="44.88469" lon="3.79078">
        <ele>1219.44</ele>
        <time>2023-09-07T06:23:38Z</time>
      </trkpt>
      <trkpt lat="44.88451" lon="3.7908">
        <ele>1217.44</ele>
        <time>2023-09-07T06:23:54Z</time>
      </trkpt>
      <trkpt lat="44.88431" lon="3.79085">
        <ele>1216.44</ele>
        <time>2023-09-07T06:24:10Z</time>
      </trkpt>
      <trkpt lat="44.88411" lon="3.7909">
        <ele>1216.44</ele>
        <time>2023-09-07T06:24:26Z</time>
      </trkpt>
      <trkpt lat="44.88392" lon="3.79098">
        <ele>1216.44</ele>
        <time>2023-09-07T06:24:42Z</time>
      </trkpt>
      <trkpt lat="44.88371" lon="3.79108">
        <ele>1213.44</ele>
        <time>2023-09-07T06:25:02Z</time>
      </trkpt>
      <trkpt lat="44.88351" lon="3.79116">
        <ele>1213.44</ele>
        <time>2023-09-07T06:25:18Z</time>
      </trkpt>
      <trkpt lat="44.88332" lon="3.79122">
        <ele>1214.44</ele>
        <time>2023-09-07T06:25:34Z</time>
      </trkpt>
      <trkpt lat="44.88314" lon="3.79128">
        <ele>1213.44</ele>
        <time>2023-09-07T06:25:50Z</time>
      </trkpt>
      <trkpt lat="44.88294" lon="3.79136">
        <ele>1213.44</ele>
        <time>2023-09-07T06:26:06Z</time>
      </trkpt>
      <trkpt lat="44.88275" lon="3.79143">
        <ele>1214.44</ele>
        <time>2023-09-07T06:26:22Z</time>
      </trkpt>
      <trkpt lat="44.88255" lon="3.79149">
        <ele>1213.44</ele>
        <time>2023-09-07T06:26:38Z</time>
      </trkpt>
      <trkpt lat="44.88237" lon="3.79157">
        <ele>1213.44</ele>
        <time>2023-09-07T06:26:54Z</time>
      </trkpt>
      <trkpt lat="44.88217" lon="3.79163">
        <ele>1212.44</ele>
        <time>2023-09-07T06:27:10Z</time>
      </trkpt>
      <trkpt lat="44.88197" lon="3.79173">
        <ele>1211.44</ele>
        <time>2023-09-07T06:27:26Z</time>
      </trkpt>
      <trkpt lat="44.88177" lon="3.79182">
        <ele>1210.44</ele>
        <time>2023-09-07T06:27:42Z</time>
      </trkpt>
      <trkpt lat="44.88159" lon="3.79192">
        <ele>1210.44</ele>
        <time>2023-09-07T06:27:58Z</time>
      </trkpt>
      <trkpt lat="44.88139" lon="3.79201">
        <ele>1209.44</ele>
        <time>2023-09-07T06:28:14Z</time>
      </trkpt>
      <trkpt lat="44.88119" lon="3.79213">
        <ele>1208.44</ele>
        <time>2023-09-07T06:28:30Z</time>
      </trkpt>
      <trkpt lat="44.88101" lon="3.79224">
        <ele>1206.44</ele>
        <time>2023-09-07T06:28:46Z</time>
      </trkpt>
      <trkpt lat="44.88082" lon="3.79234">
        <ele>1206.44</ele>
        <time>2023-09-07T06:29:02Z</time>
      </trkpt>
      <trkpt lat="44.88064" lon="3.79246">
        <ele>1207.44</ele>
        <time>2023-09-07T06:29:18Z</time>
      </trkpt>
      <trkpt lat="44.88044" lon="3.79257">
        <ele>1205.44</ele>
        <time>2023-09-07T06:29:34Z</time>
      </trkpt>
      <trkpt lat="44.88025" lon="3.79268">
        <ele>1205.44</ele>
        <time>2023-09-07T06:29:50Z</time>
      </trkpt>
      <trkpt lat="44.88006" lon="3.79281">
        <ele>1205.44</ele>
        <time>2023-09-07T06:30:06Z</time>
      </trkpt>
      <trkpt lat="44.87989" lon="3.79295">
        <ele>1204.44</ele>
        <time>2023-09-07T06:30:22Z</time>
      </trkpt>
      <trkpt lat="44.87971" lon="3.7931">
        <ele>1203.44</ele>
        <time>2023-09-07T06:30:38Z</time>
      </trkpt>
      <trkpt lat="44.87952" lon="3.79321">
        <ele>1202.44</ele>
        <time>2023-09-07T06:30:54Z</time>
      </trkpt>
      <trkpt lat="44.87934" lon="3.79334">
        <ele>1201.44</ele>
        <time>2023-09-07T06:31:10Z</time>
      </trkpt>
      <trkpt lat="44.87915" lon="3.79347">
        <ele>1200.44</ele>
        <time>2023-09-07T06:31:26Z</time>
      </trkpt>
      <trkpt lat="44.87896" lon="3.7936">
        <ele>1199.44</ele>
        <time>2023-09-07T06:31:42Z</time>
      </trkpt>
      <trkpt lat="44.87878" lon="3.79375">
        <ele>1198.44</ele>
        <time>2023-09-07T06:31:58Z</time>
      </trkpt>
      <trkpt lat="44.8786" lon="3.7939">
        <ele>1197.44</ele>
        <time>2023-09-07T06:32:14Z</time>
      </trkpt>
      <trkpt lat="44.87842" lon="3.79405">
        <ele>1196.44</ele>
        <time>2023-09-07T06:32:30Z</time>
      </trkpt>
      <trkpt lat="44.87826" lon="3.79425">
        <ele>1197.44</ele>
        <time>2023-09-07T06:32:47Z</time>
      </trkpt>
      <trkpt lat="44.87811" lon="3.79445">
        <ele>1195.44</ele>
        <time>2023-09-07T06:33:03Z</time>
      </trkpt>
      <trkpt lat="44.87796" lon="3.79461">
        <ele>1195.44</ele>
        <time>2023-09-07T06:33:19Z</time>
      </trkpt>
      <trkpt lat="44.87779" lon="3.79479">
        <ele>1194.44</ele>
        <time>2023-09-07T06:33:35Z</time>
      </trkpt>
      <trkpt lat="44.87762" lon="3.79497">
        <ele>1193.44</ele>
        <time>2023-09-07T06:33:51Z</time>
      </trkpt>
      <trkpt lat="44.87746" lon="3.79513">
        <ele>1194.44</ele>
        <time>2023-09-07T06:34:07Z</time>
      </trkpt>
      <trkpt lat="44.8773" lon="3.79532">
        <ele>1192.44</ele>
        <time>2023-09-07T06:34:23Z</time>
      </trkpt>
      <trkpt lat="44.87714" lon="3.7955">
        <ele>1192.44</ele>
        <time>2023-09-07T06:34:39Z</time>
      </trkpt>
      <trkpt lat="44.87698" lon="3.79566">
        <ele>1191.44</ele>
        <time>2023-09-07T06:34:55Z</time>
      </trkpt>
      <trkpt lat="44.87681" lon="3.79582">
        <ele>1192.44</ele>
        <time>2023-09-07T06:35:11Z</time>
      </trkpt>
      <trkpt lat="44.87663" lon="3.79596">
        <ele>1193.44</ele>
        <time>2023-09-07T06:35:28Z</time>
      </trkpt>
      <trkpt lat="44.87646" lon="3.79609">
        <ele>1194.44</ele>
        <time>2023-09-07T06:35:44Z</time>
      </trkpt>
      <trkpt lat="44.8763" lon="3.79626">
        <ele>1194.44</ele>
        <time>2023-09-07T06:36:00Z</time>
      </trkpt>
      <trkpt lat="44.87613" lon="3.79639">
        <ele>1193.44</ele>
        <time>2023-09-07T06:36:16Z</time>
      </trkpt>
      <trkpt lat="44.87593" lon="3.79647">
        <ele>1193.44</ele>
        <time>2023-09-07T06:36:32Z</time>
      </trkpt>
      <trkpt lat="44.87573" lon="3.79655">
        <ele>1191.44</ele>
        <time>2023-09-07T06:36:49Z</time>
      </trkpt>
      <trkpt lat="44.87554" lon="3.79664">
        <ele>1191.44</ele>
        <time>2023-09-07T06:37:05Z</time>
      </trkpt>
      <trkpt lat="44.87534" lon="3.79677">
        <ele>1191.44</ele>
        <time>2023-09-07T06:37:21Z</time>
      </trkpt>
      <trkpt lat="44.87516" lon="3.79686">
        <ele>1193.44</ele>
        <time>2023-09-07T06:37:37Z</time>
      </trkpt>
      <trkpt lat="44.87497" lon="3.79697">
        <ele>1193.44</ele>
        <time>2023-09-07T06:37:53Z</time>
      </trkpt>
      <trkpt lat="44.87478" lon="3.79707">
        <ele>1192.44</ele>
        <time>2023-09-07T06:38:09Z</time>
      </trkpt>
      <trkpt lat="44.8746" lon="3.7972">
        <ele>1192.44</ele>
        <time>2023-09-07T06:38:25Z</time>
      </trkpt>
      <trkpt lat="44.87442" lon="3.79731">
        <ele>1192.44</ele>
        <time>2023-09-07T06:38:41Z</time>
      </trkpt>
      <trkpt lat="44.87421" lon="3.79742">
        <ele>1192.44</ele>
        <time>2023-09-07T06:38:57Z</time>
      </trkpt>
      <trkpt lat="44.87403" lon="3.79752">
        <ele>1193.44</ele>
        <time>2023-09-07T06:39:13Z</time>
      </trkpt>
      <trkpt lat="44.87385" lon="3.79764">
        <ele>1194.44</ele>
        <time>2023-09-07T06:39:29Z</time>
      </trkpt>
      <trkpt lat="44.87365" lon="3.79775">
        <ele>1194.44</ele>
        <time>2023-09-07T06:39:45Z</time>
      </trkpt>
      <trkpt lat="44.87347" lon="3.79785">
        <ele>1194.44</ele>
        <time>2023-09-07T06:40:01Z</time>
      </trkpt>
      <trkpt lat="44.8733" lon="3.79796">
        <ele>1193.44</ele>
        <time>2023-09-07T06:40:17Z</time>
      </trkpt>
      <trkpt lat="44.8731" lon="3.79808">
        <ele>1192.44</ele>
        <time>2023-09-07T06:40:33Z</time>
      </trkpt>
      <trkpt lat="44.8729" lon="3.79818">
        <ele>1191.44</ele>
        <time>2023-09-07T06:40:49Z</time>
      </trkpt>
      <trkpt lat="44.87273" lon="3.79829">
        <ele>1192.44</ele>
        <time>2023-09-07T06:41:05Z</time>
      </trkpt>
      <trkpt lat="44.87254" lon="3.79841">
        <ele>1192.44</ele>
        <time>2023-09-07T06:41:25Z</time>
      </trkpt>
      <trkpt lat="44.87236" lon="3.7985">
        <ele>1191.44</ele>
        <time>2023-09-07T06:41:41Z</time>
      </trkpt>
      <trkpt lat="44.87218" lon="3.79865">
        <ele>1190.44</ele>
        <time>2023-09-07T06:41:57Z</time>
      </trkpt>
      <trkpt lat="44.87201" lon="3.79878">
        <ele>1188.44</ele>
        <time>2023-09-07T06:42:17Z</time>
      </trkpt>
      <trkpt lat="44.87182" lon="3.79892">
        <ele>1187.44</ele>
        <time>2023-09-07T06:42:37Z</time>
      </trkpt>
      <trkpt lat="44.87165" lon="3.79905">
        <ele>1186.44</ele>
        <time>2023-09-07T06:42:53Z</time>
      </trkpt>
      <trkpt lat="44.87146" lon="3.7992">
        <ele>1185.44</ele>
        <time>2023-09-07T06:43:09Z</time>
      </trkpt>
      <trkpt lat="44.87128" lon="3.79932">
        <ele>1185.44</ele>
        <time>2023-09-07T06:43:25Z</time>
      </trkpt>
      <trkpt lat="44.87109" lon="3.79948">
        <ele>1183.44</ele>
        <time>2023-09-07T06:43:42Z</time>
      </trkpt>
      <trkpt lat="44.87091" lon="3.79961">
        <ele>1183.44</ele>
        <time>2023-09-07T06:43:58Z</time>
      </trkpt>
      <trkpt lat="44.87073" lon="3.79975">
        <ele>1182.44</ele>
        <time>2023-09-07T06:44:14Z</time>
      </trkpt>
      <trkpt lat="44.87055" lon="3.79992">
        <ele>1181.44</ele>
        <time>2023-09-07T06:44:30Z</time>
      </trkpt>
      <trkpt lat="44.87037" lon="3.80006">
        <ele>1180.44</ele>
        <time>2023-09-07T06:44:46Z</time>
      </trkpt>
      <trkpt lat="44.87018" lon="3.8002">
        <ele>1180.44</ele>
        <time>2023-09-07T06:45:02Z</time>
      </trkpt>
      <trkpt lat="44.87001" lon="3.80033">
        <ele>1179.44</ele>
        <time>2023-09-07T06:45:18Z</time>
      </trkpt>
      <trkpt lat="44.86983" lon="3.80047">
        <ele>1177.44</ele>
        <time>2023-09-07T06:45:34Z</time>
      </trkpt>
      <trkpt lat="44.86965" lon="3.80061">
        <ele>1176.44</ele>
        <time>2023-09-07T06:45:50Z</time>
      </trkpt>
      <trkpt lat="44.86947" lon="3.80072">
        <ele>1175.44</ele>
        <time>2023-09-07T06:46:06Z</time>
      </trkpt>
      <trkpt lat="44.86928" lon="3.80086">
        <ele>1174.44</ele>
        <time>2023-09-07T06:46:22Z</time>
      </trkpt>
      <trkpt lat="44.8691" lon="3.80098">
        <ele>1173.44</ele>
        <time>2023-09-07T06:46:38Z</time>
      </trkpt>
      <trkpt lat="44.86893" lon="3.80114">
        <ele>1173.44</ele>
        <time>2023-09-07T06:46:54Z</time>
      </trkpt>
      <trkpt lat="44.86875" lon="3.80126">
        <ele>1173.44</ele>
        <time>2023-09-07T06:47:10Z</time>
      </trkpt>
      <trkpt lat="44.86856" lon="3.80135">
        <ele>1172.44</ele>
        <time>2023-09-07T06:47:26Z</time>
      </trkpt>
      <trkpt lat="44.86837" lon="3.80143">
        <ele>1171.44</ele>
        <time>2023-09-07T06:47:42Z</time>
      </trkpt>
      <trkpt lat="44.86817" lon="3.80152">
        <ele>1171.44</ele>
        <time>2023-09-07T06:47:58Z</time>
      </trkpt>
      <trkpt lat="44.86797" lon="3.80162">
        <ele>1170.44</ele>
        <time>2023-09-07T06:48:14Z</time>
      </trkpt>
      <trkpt lat="44.86779" lon="3.8017">
        <ele>1170.44</ele>
        <time>2023-09-07T06:48:30Z</time>
      </trkpt>
      <trkpt lat="44.86757" lon="3.8018">
        <ele>1168.44</ele>
        <time>2023-09-07T06:48:46Z</time>
      </trkpt>
      <trkpt lat="44.86737" lon="3.80191">
        <ele>1169.44</ele>
        <time>2023-09-07T06:49:02Z</time>
      </trkpt>
      <trkpt lat="44.86717" lon="3.80202">
        <ele>1168.44</ele>
        <time>2023-09-07T06:49:18Z</time>
      </trkpt>
      <trkpt lat="44.86699" lon="3.80218">
        <ele>1167.44</ele>
        <time>2023-09-07T06:49:34Z</time>
      </trkpt>
      <trkpt lat="44.86682" lon="3.80233">
        <ele>1166.44</ele>
        <time>2023-09-07T06:49:50Z</time>
      </trkpt>
      <trkpt lat="44.86664" lon="3.80248">
        <ele>1165.44</ele>
        <time>2023-09-07T06:50:06Z</time>
      </trkpt>
      <trkpt lat="44.86646" lon="3.80266">
        <ele>1166.44</ele>
        <time>2023-09-07T06:50:22Z</time>
      </trkpt>
      <trkpt lat="44.86629" lon="3.80281">
        <ele>1165.44</ele>
        <time>2023-09-07T06:50:38Z</time>
      </trkpt>
      <trkpt lat="44.86611" lon="3.80295">
        <ele>1164.44</ele>
        <time>2023-09-07T06:50:54Z</time>
      </trkpt>
      <trkpt lat="44.86592" lon="3.80308">
        <ele>1164.44</ele>
        <time>2023-09-07T06:51:10Z</time>
      </trkpt>
      <trkpt lat="44.86575" lon="3.80324">
        <ele>1164.44</ele>
        <time>2023-09-07T06:51:26Z</time>
      </trkpt>
      <trkpt lat="44.86557" lon="3.80339">
        <ele>1162.44</ele>
        <time>2023-09-07T06:51:42Z</time>
      </trkpt>
      <trkpt lat="44.8654" lon="3.80358">
        <ele>1162.44</ele>
        <time>2023-09-07T06:51:58Z</time>
      </trkpt>
      <trkpt lat="44.86524" lon="3.80376">
        <ele>1161.44</ele>
        <time>2023-09-07T06:52:14Z</time>
      </trkpt>
      <trkpt lat="44.86505" lon="3.80383">
        <ele>1160.44</ele>
        <time>2023-09-07T06:52:30Z</time>
      </trkpt>
      <trkpt lat="44.86486" lon="3.80395">
        <ele>1160.44</ele>
        <time>2023-09-07T06:52:46Z</time>
      </trkpt>
      <trkpt lat="44.86469" lon="3.80415">
        <ele>1159.44</ele>
        <time>2023-09-07T06:53:02Z</time>
      </trkpt>
      <trkpt lat="44.86456" lon="3.80438">
        <ele>1157.44</ele>
        <time>2023-09-07T06:53:18Z</time>
      </trkpt>
      <trkpt lat="44.86447" lon="3.80466">
        <ele>1160.44</ele>
        <time>2023-09-07T06:53:34Z</time>
      </trkpt>
      <trkpt lat="44.8644" lon="3.80493">
        <ele>1161.44</ele>
        <time>2023-09-07T06:53:50Z</time>
      </trkpt>
      <trkpt lat="44.8643" lon="3.80517">
        <ele>1162.44</ele>
        <time>2023-09-07T06:54:06Z</time>
      </trkpt>
      <trkpt lat="44.86421" lon="3.80541">
        <ele>1160.44</ele>
        <time>2023-09-07T06:55:18Z</time>
      </trkpt>
      <trkpt lat="44.8641" lon="3.80563">
        <ele>1161.44</ele>
        <time>2023-09-07T06:55:34Z</time>
      </trkpt>
      <trkpt lat="44.86399" lon="3.80585">
        <ele>1161.44</ele>
        <time>2023-09-07T06:55:50Z</time>
      </trkpt>
      <trkpt lat="44.86389" lon="3.80607">
        <ele>1161.44</ele>
        <time>2023-09-07T06:56:06Z</time>
      </trkpt>
      <trkpt lat="44.86379" lon="3.8063">
        <ele>1162.44</ele>
        <time>2023-09-07T06:56:22Z</time>
      </trkpt>
      <trkpt lat="44.86369" lon="3.80653">
        <ele>1161.44</ele>
        <time>2023-09-07T06:56:38Z</time>
      </trkpt>
      <trkpt lat="44.86359" lon="3.80678">
        <ele>1161.44</ele>
        <time>2023-09-07T06:56:54Z</time>
      </trkpt>
      <trkpt lat="44.86349" lon="3.80702">
        <ele>1161.44</ele>
        <time>2023-09-07T06:57:10Z</time>
      </trkpt>
      <trkpt lat="44.86336" lon="3.80722">
        <ele>1160.44</ele>
        <time>2023-09-07T06:57:30Z</time>
      </trkpt>
      <trkpt lat="44.86325" lon="3.80743">
        <ele>1160.44</ele>
        <time>2023-09-07T06:58:07Z</time>
      </trkpt>
      <trkpt lat="44.86312" lon="3.80763">
        <ele>1159.44</ele>
        <time>2023-09-07T06:58:23Z</time>
      </trkpt>
      <trkpt lat="44.86299" lon="3.8078">
        <ele>1159.44</ele>
        <time>2023-09-07T06:58:39Z</time>
      </trkpt>
      <trkpt lat="44.86285" lon="3.808">
        <ele>1158.44</ele>
        <time>2023-09-07T06:58:55Z</time>
      </trkpt>
      <trkpt lat="44.86272" lon="3.8082">
        <ele>1158.44</ele>
        <time>2023-09-07T06:59:11Z</time>
      </trkpt>
      <trkpt lat="44.86257" lon="3.80838">
        <ele>1159.44</ele>
        <time>2023-09-07T06:59:27Z</time>
      </trkpt>
      <trkpt lat="44.86242" lon="3.80857">
        <ele>1157.44</ele>
        <time>2023-09-07T06:59:44Z</time>
      </trkpt>
      <trkpt lat="44.86226" lon="3.80874">
        <ele>1155.44</ele>
        <time>2023-09-07T07:00:00Z</time>
      </trkpt>
      <trkpt lat="44.86216" lon="3.80898">
        <ele>1156.44</ele>
        <time>2023-09-07T07:00:16Z</time>
      </trkpt>
      <trkpt lat="44.86206" lon="3.8092">
        <ele>1156.44</ele>
        <time>2023-09-07T07:00:32Z</time>
      </trkpt>
      <trkpt lat="44.86194" lon="3.80941">
        <ele>1155.44</ele>
        <time>2023-09-07T07:00:48Z</time>
      </trkpt>
      <trkpt lat="44.86178" lon="3.80958">
        <ele>1154.44</ele>
        <time>2023-09-07T07:01:04Z</time>
      </trkpt>
      <trkpt lat="44.86159" lon="3.80969">
        <ele>1152.44</ele>
        <time>2023-09-07T07:01:21Z</time>
      </trkpt>
      <trkpt lat="44.86141" lon="3.8098">
        <ele>1151.44</ele>
        <time>2023-09-07T07:01:37Z</time>
      </trkpt>
      <trkpt lat="44.86124" lon="3.80992">
        <ele>1152.44</ele>
        <time>2023-09-07T07:01:53Z</time>
      </trkpt>
      <trkpt lat="44.86107" lon="3.81004">
        <ele>1152.44</ele>
        <time>2023-09-07T07:02:09Z</time>
      </trkpt>
      <trkpt lat="44.86089" lon="3.81016">
        <ele>1151.44</ele>
        <time>2023-09-07T07:02:25Z</time>
      </trkpt>
      <trkpt lat="44.86072" lon="3.81028">
        <ele>1152.44</ele>
        <time>2023-09-07T07:02:41Z</time>
      </trkpt>
      <trkpt lat="44.86056" lon="3.81043">
        <ele>1152.44</ele>
        <time>2023-09-07T07:02:57Z</time>
      </trkpt>
      <trkpt lat="44.86038" lon="3.81058">
        <ele>1151.44</ele>
        <time>2023-09-07T07:03:14Z</time>
      </trkpt>
      <trkpt lat="44.86023" lon="3.81076">
        <ele>1151.44</ele>
        <time>2023-09-07T07:03:30Z</time>
      </trkpt>
      <trkpt lat="44.8601" lon="3.81097">
        <ele>1150.44</ele>
        <time>2023-09-07T07:03:46Z</time>
      </trkpt>
      <trkpt lat="44.85997" lon="3.8112">
        <ele>1151.44</ele>
        <time>2023-09-07T07:04:02Z</time>
      </trkpt>
      <trkpt lat="44.85983" lon="3.81144">
        <ele>1150.44</ele>
        <time>2023-09-07T07:04:19Z</time>
      </trkpt>
      <trkpt lat="44.8597" lon="3.81163">
        <ele>1151.44</ele>
        <time>2023-09-07T07:04:35Z</time>
      </trkpt>
      <trkpt lat="44.85953" lon="3.81177">
        <ele>1150.44</ele>
        <time>2023-09-07T07:04:51Z</time>
      </trkpt>
      <trkpt lat="44.85935" lon="3.81187">
        <ele>1150.44</ele>
        <time>2023-09-07T07:05:07Z</time>
      </trkpt>
      <trkpt lat="44.85916" lon="3.81194">
        <ele>1150.44</ele>
        <time>2023-09-07T07:05:23Z</time>
      </trkpt>
      <trkpt lat="44.85907" lon="3.81221">
        <ele>1150.44</ele>
        <time>2023-09-07T07:05:39Z</time>
      </trkpt>
      <trkpt lat="44.85907" lon="3.81248">
        <ele>1152.44</ele>
        <time>2023-09-07T07:05:55Z</time>
      </trkpt>
      <trkpt lat="44.8591" lon="3.81275">
        <ele>1151.44</ele>
        <time>2023-09-07T07:06:11Z</time>
      </trkpt>
      <trkpt lat="44.85914" lon="3.81303">
        <ele>1150.44</ele>
        <time>2023-09-07T07:06:27Z</time>
      </trkpt>
      <trkpt lat="44.85924" lon="3.81327">
        <ele>1149.44</ele>
        <time>2023-09-07T07:06:43Z</time>
      </trkpt>
      <trkpt lat="44.85932" lon="3.81351">
        <ele>1148.44</ele>
        <time>2023-09-07T07:06:59Z</time>
      </trkpt>
      <trkpt lat="44.8594" lon="3.81376">
        <ele>1152.44</ele>
        <time>2023-09-07T07:07:15Z</time>
      </trkpt>
      <trkpt lat="44.85949" lon="3.814">
        <ele>1154.44</ele>
        <time>2023-09-07T07:07:31Z</time>
      </trkpt>
      <trkpt lat="44.85959" lon="3.81426">
        <ele>1154.44</ele>
        <time>2023-09-07T07:07:47Z</time>
      </trkpt>
      <trkpt lat="44.85968" lon="3.8145">
        <ele>1155.44</ele>
        <time>2023-09-07T07:08:07Z</time>
      </trkpt>
      <trkpt lat="44.85978" lon="3.81478">
        <ele>1155.44</ele>
        <time>2023-09-07T07:08:39Z</time>
      </trkpt>
      <trkpt lat="44.85988" lon="3.81502">
        <ele>1153.44</ele>
        <time>2023-09-07T07:08:55Z</time>
      </trkpt>
      <trkpt lat="44.85999" lon="3.81526">
        <ele>1153.44</ele>
        <time>2023-09-07T07:09:11Z</time>
      </trkpt>
      <trkpt lat="44.86011" lon="3.81549">
        <ele>1154.44</ele>
        <time>2023-09-07T07:09:27Z</time>
      </trkpt>
      <trkpt lat="44.86025" lon="3.81571">
        <ele>1152.44</ele>
        <time>2023-09-07T07:09:43Z</time>
      </trkpt>
      <trkpt lat="44.86038" lon="3.81588">
        <ele>1153.44</ele>
        <time>2023-09-07T07:09:59Z</time>
      </trkpt>
      <trkpt lat="44.86054" lon="3.81604">
        <ele>1153.44</ele>
        <time>2023-09-07T07:10:15Z</time>
      </trkpt>
      <trkpt lat="44.86069" lon="3.81619">
        <ele>1152.44</ele>
        <time>2023-09-07T07:10:31Z</time>
      </trkpt>
      <trkpt lat="44.86084" lon="3.81637">
        <ele>1153.44</ele>
        <time>2023-09-07T07:10:47Z</time>
      </trkpt>
      <trkpt lat="44.861" lon="3.81657">
        <ele>1153.44</ele>
        <time>2023-09-07T07:11:03Z</time>
      </trkpt>
      <trkpt lat="44.86117" lon="3.81674">
        <ele>1151.44</ele>
        <time>2023-09-07T07:11:19Z</time>
      </trkpt>
      <trkpt lat="44.86131" lon="3.81693">
        <ele>1148.44</ele>
        <time>2023-09-07T07:11:35Z</time>
      </trkpt>
      <trkpt lat="44.86137" lon="3.81718">
        <ele>1149.44</ele>
        <time>2023-09-07T07:11:51Z</time>
      </trkpt>
      <trkpt lat="44.86127" lon="3.81744">
        <ele>1151.44</ele>
        <time>2023-09-07T07:12:07Z</time>
      </trkpt>
      <trkpt lat="44.86113" lon="3.8176">
        <ele>1152.44</ele>
        <time>2023-09-07T07:12:23Z</time>
      </trkpt>
      <trkpt lat="44.86098" lon="3.8178">
        <ele>1152.44</ele>
        <time>2023-09-07T07:12:39Z</time>
      </trkpt>
      <trkpt lat="44.86084" lon="3.81796">
        <ele>1151.44</ele>
        <time>2023-09-07T07:12:55Z</time>
      </trkpt>
      <trkpt lat="44.86067" lon="3.8181">
        <ele>1152.44</ele>
        <time>2023-09-07T07:13:11Z</time>
      </trkpt>
      <trkpt lat="44.86048" lon="3.8182">
        <ele>1151.44</ele>
        <time>2023-09-07T07:13:27Z</time>
      </trkpt>
      <trkpt lat="44.86027" lon="3.81831">
        <ele>1151.44</ele>
        <time>2023-09-07T07:13:43Z</time>
      </trkpt>
      <trkpt lat="44.86009" lon="3.81843">
        <ele>1150.44</ele>
        <time>2023-09-07T07:13:59Z</time>
      </trkpt>
      <trkpt lat="44.8599" lon="3.81853">
        <ele>1151.44</ele>
        <time>2023-09-07T07:14:15Z</time>
      </trkpt>
      <trkpt lat="44.85972" lon="3.81864">
        <ele>1151.44</ele>
        <time>2023-09-07T07:14:31Z</time>
      </trkpt>
      <trkpt lat="44.85955" lon="3.81875">
        <ele>1151.44</ele>
        <time>2023-09-07T07:14:47Z</time>
      </trkpt>
      <trkpt lat="44.85935" lon="3.81884">
        <ele>1149.44</ele>
        <time>2023-09-07T07:15:03Z</time>
      </trkpt>
      <trkpt lat="44.85918" lon="3.81898">
        <ele>1148.44</ele>
        <time>2023-09-07T07:15:19Z</time>
      </trkpt>
      <trkpt lat="44.85903" lon="3.81916">
        <ele>1149.44</ele>
        <time>2023-09-07T07:15:47Z</time>
      </trkpt>
      <trkpt lat="44.85885" lon="3.8193">
        <ele>1148.44</ele>
        <time>2023-09-07T07:16:03Z</time>
      </trkpt>
      <trkpt lat="44.85867" lon="3.81941">
        <ele>1145.44</ele>
        <time>2023-09-07T07:16:19Z</time>
      </trkpt>
      <trkpt lat="44.8585" lon="3.81955">
        <ele>1144.44</ele>
        <time>2023-09-07T07:16:35Z</time>
      </trkpt>
      <trkpt lat="44.85833" lon="3.81967">
        <ele>1146.44</ele>
        <time>2023-09-07T07:16:51Z</time>
      </trkpt>
      <trkpt lat="44.85816" lon="3.81979">
        <ele>1146.44</ele>
        <time>2023-09-07T07:17:07Z</time>
      </trkpt>
      <trkpt lat="44.85797" lon="3.81993">
        <ele>1145.44</ele>
        <time>2023-09-07T07:17:23Z</time>
      </trkpt>
      <trkpt lat="44.8578" lon="3.82005">
        <ele>1145.44</ele>
        <time>2023-09-07T07:17:39Z</time>
      </trkpt>
      <trkpt lat="44.85762" lon="3.82016">
        <ele>1144.44</ele>
        <time>2023-09-07T07:17:55Z</time>
      </trkpt>
      <trkpt lat="44.85743" lon="3.82032">
        <ele>1144.44</ele>
        <time>2023-09-07T07:18:11Z</time>
      </trkpt>
      <trkpt lat="44.85729" lon="3.82048">
        <ele>1145.44</ele>
        <time>2023-09-07T07:18:27Z</time>
      </trkpt>
      <trkpt lat="44.85713" lon="3.8207">
        <ele>1143.44</ele>
        <time>2023-09-07T07:18:43Z</time>
      </trkpt>
      <trkpt lat="44.857" lon="3.8209">
        <ele>1144.44</ele>
        <time>2023-09-07T07:18:59Z</time>
      </trkpt>
      <trkpt lat="44.85685" lon="3.82108">
        <ele>1145.44</ele>
        <time>2023-09-07T07:19:15Z</time>
      </trkpt>
      <trkpt lat="44.85668" lon="3.82127">
        <ele>1145.44</ele>
        <time>2023-09-07T07:19:31Z</time>
      </trkpt>
      <trkpt lat="44.85653" lon="3.82148">
        <ele>1144.44</ele>
        <time>2023-09-07T07:19:47Z</time>
      </trkpt>
      <trkpt lat="44.85636" lon="3.82166">
        <ele>1145.44</ele>
        <time>2023-09-07T07:20:04Z</time>
      </trkpt>
      <trkpt lat="44.85621" lon="3.82185">
        <ele>1144.44</ele>
        <time>2023-09-07T07:20:20Z</time>
      </trkpt>
      <trkpt lat="44.85607" lon="3.82207">
        <ele>1142.44</ele>
        <time>2023-09-07T07:20:36Z</time>
      </trkpt>
      <trkpt lat="44.85592" lon="3.82227">
        <ele>1142.44</ele>
        <time>2023-09-07T07:20:52Z</time>
      </trkpt>
      <trkpt lat="44.85576" lon="3.82247">
        <ele>1142.44</ele>
        <time>2023-09-07T07:21:08Z</time>
      </trkpt>
      <trkpt lat="44.85563" lon="3.82267">
        <ele>1143.44</ele>
        <time>2023-09-07T07:21:24Z</time>
      </trkpt>
      <trkpt lat="44.85549" lon="3.82288">
        <ele>1143.44</ele>
        <time>2023-09-07T07:21:40Z</time>
      </trkpt>
      <trkpt lat="44.85537" lon="3.8231">
        <ele>1145.44</ele>
        <time>2023-09-07T07:21:56Z</time>
      </trkpt>
      <trkpt lat="44.85524" lon="3.82328">
        <ele>1145.44</ele>
        <time>2023-09-07T07:22:12Z</time>
      </trkpt>
      <trkpt lat="44.85508" lon="3.82347">
        <ele>1146.44</ele>
        <time>2023-09-07T07:22:28Z</time>
      </trkpt>
      <trkpt lat="44.85492" lon="3.82363">
        <ele>1145.44</ele>
        <time>2023-09-07T07:22:44Z</time>
      </trkpt>
      <trkpt lat="44.85477" lon="3.82381">
        <ele>1144.44</ele>
        <time>2023-09-07T07:23:00Z</time>
      </trkpt>
      <trkpt lat="44.85462" lon="3.82397">
        <ele>1144.44</ele>
        <time>2023-09-07T07:23:16Z</time>
      </trkpt>
      <trkpt lat="44.85446" lon="3.82413">
        <ele>1144.44</ele>
        <time>2023-09-07T07:23:32Z</time>
      </trkpt>
      <trkpt lat="44.85429" lon="3.82426">
        <ele>1145.44</ele>
        <time>2023-09-07T07:23:48Z</time>
      </trkpt>
      <trkpt lat="44.85411" lon="3.8244">
        <ele>1145.44</ele>
        <time>2023-09-07T07:24:04Z</time>
      </trkpt>
      <trkpt lat="44.85393" lon="3.82451">
        <ele>1145.44</ele>
        <time>2023-09-07T07:24:20Z</time>
      </trkpt>
      <trkpt lat="44.85374" lon="3.82463">
        <ele>1145.44</ele>
        <time>2023-09-07T07:24:37Z</time>
      </trkpt>
      <trkpt lat="44.85356" lon="3.82474">
        <ele>1144.44</ele>
        <time>2023-09-07T07:24:53Z</time>
      </trkpt>
      <trkpt lat="44.85337" lon="3.82482">
        <ele>1146.44</ele>
        <time>2023-09-07T07:25:09Z</time>
      </trkpt>
      <trkpt lat="44.85318" lon="3.82492">
        <ele>1145.44</ele>
        <time>2023-09-07T07:25:25Z</time>
      </trkpt>
      <trkpt lat="44.85299" lon="3.82499">
        <ele>1143.44</ele>
        <time>2023-09-07T07:25:53Z</time>
      </trkpt>
      <trkpt lat="44.85283" lon="3.82514">
        <ele>1143.44</ele>
        <time>2023-09-07T07:26:09Z</time>
      </trkpt>
      <trkpt lat="44.8527" lon="3.82536">
        <ele>1144.44</ele>
        <time>2023-09-07T07:26:25Z</time>
      </trkpt>
      <trkpt lat="44.8526" lon="3.82563">
        <ele>1142.44</ele>
        <time>2023-09-07T07:26:41Z</time>
      </trkpt>
      <trkpt lat="44.8525" lon="3.82589">
        <ele>1140.44</ele>
        <time>2023-09-07T07:26:57Z</time>
      </trkpt>
      <trkpt lat="44.85242" lon="3.82615">
        <ele>1139.44</ele>
        <time>2023-09-07T07:27:13Z</time>
      </trkpt>
      <trkpt lat="44.85233" lon="3.82639">
        <ele>1138.44</ele>
        <time>2023-09-07T07:27:29Z</time>
      </trkpt>
      <trkpt lat="44.85215" lon="3.82625">
        <ele>1136.44</ele>
        <time>2023-09-07T07:27:49Z</time>
      </trkpt>
      <trkpt lat="44.85211" lon="3.82599">
        <ele>1138.44</ele>
        <time>2023-09-07T07:28:06Z</time>
      </trkpt>
      <trkpt lat="44.85193" lon="3.82607">
        <ele>1136.44</ele>
        <time>2023-09-07T07:28:46Z</time>
      </trkpt>
      <trkpt lat="44.85171" lon="3.82602">
        <ele>1137.44</ele>
        <time>2023-09-07T07:29:06Z</time>
      </trkpt>
      <trkpt lat="44.85151" lon="3.82601">
        <ele>1135.44</ele>
        <time>2023-09-07T07:29:22Z</time>
      </trkpt>
      <trkpt lat="44.85132" lon="3.82599">
        <ele>1133.44</ele>
        <time>2023-09-07T07:29:38Z</time>
      </trkpt>
      <trkpt lat="44.85111" lon="3.82597">
        <ele>1132.44</ele>
        <time>2023-09-07T07:29:54Z</time>
      </trkpt>
      <trkpt lat="44.85091" lon="3.82601">
        <ele>1131.44</ele>
        <time>2023-09-07T07:30:10Z</time>
      </trkpt>
      <trkpt lat="44.85072" lon="3.8261">
        <ele>1129.44</ele>
        <time>2023-09-07T07:30:26Z</time>
      </trkpt>
      <trkpt lat="44.85052" lon="3.82619">
        <ele>1125.44</ele>
        <time>2023-09-07T07:30:46Z</time>
      </trkpt>
      <trkpt lat="44.85034" lon="3.82627">
        <ele>1123.44</ele>
        <time>2023-09-07T07:31:02Z</time>
      </trkpt>
      <trkpt lat="44.85016" lon="3.82637">
        <ele>1122.44</ele>
        <time>2023-09-07T07:31:18Z</time>
      </trkpt>
      <trkpt lat="44.85" lon="3.82651">
        <ele>1121.44</ele>
        <time>2023-09-07T07:31:34Z</time>
      </trkpt>
      <trkpt lat="44.84985" lon="3.8267">
        <ele>1119.44</ele>
        <time>2023-09-07T07:31:50Z</time>
      </trkpt>
      <trkpt lat="44.84969" lon="3.82684">
        <ele>1117.44</ele>
        <time>2023-09-07T07:32:14Z</time>
      </trkpt>
      <trkpt lat="44.84947" lon="3.82684">
        <ele>1114.44</ele>
        <time>2023-09-07T07:32:34Z</time>
      </trkpt>
      <trkpt lat="44.84929" lon="3.82676">
        <ele>1113.44</ele>
        <time>2023-09-07T07:32:50Z</time>
      </trkpt>
      <trkpt lat="44.84914" lon="3.82655">
        <ele>1113.44</ele>
        <time>2023-09-07T07:33:10Z</time>
      </trkpt>
      <trkpt lat="44.84896" lon="3.82668">
        <ele>1115.44</ele>
        <time>2023-09-07T07:33:30Z</time>
      </trkpt>
      <trkpt lat="44.84883" lon="3.82686">
        <ele>1115.44</ele>
        <time>2023-09-07T07:33:46Z</time>
      </trkpt>
      <trkpt lat="44.84862" lon="3.82691">
        <ele>1115.44</ele>
        <time>2023-09-07T07:34:06Z</time>
      </trkpt>
      <trkpt lat="44.8484" lon="3.82686">
        <ele>1112.44</ele>
        <time>2023-09-07T07:34:26Z</time>
      </trkpt>
      <trkpt lat="44.84821" lon="3.82683">
        <ele>1111.44</ele>
        <time>2023-09-07T07:34:42Z</time>
      </trkpt>
      <trkpt lat="44.848" lon="3.82673">
        <ele>1111.44</ele>
        <time>2023-09-07T07:35:02Z</time>
      </trkpt>
      <trkpt lat="44.84782" lon="3.82668">
        <ele>1110.44</ele>
        <time>2023-09-07T07:35:18Z</time>
      </trkpt>
      <trkpt lat="44.84763" lon="3.82663">
        <ele>1109.44</ele>
        <time>2023-09-07T07:35:34Z</time>
      </trkpt>
      <trkpt lat="44.84741" lon="3.82659">
        <ele>1108.44</ele>
        <time>2023-09-07T07:35:50Z</time>
      </trkpt>
      <trkpt lat="44.84722" lon="3.82656">
        <ele>1109.44</ele>
        <time>2023-09-07T07:36:06Z</time>
      </trkpt>
      <trkpt lat="44.84703" lon="3.82654">
        <ele>1109.44</ele>
        <time>2023-09-07T07:36:22Z</time>
      </trkpt>
      <trkpt lat="44.84683" lon="3.82654">
        <ele>1110.44</ele>
        <time>2023-09-07T07:36:38Z</time>
      </trkpt>
      <trkpt lat="44.84669" lon="3.82673">
        <ele>1109.44</ele>
        <time>2023-09-07T07:36:54Z</time>
      </trkpt>
      <trkpt lat="44.8465" lon="3.82692">
        <ele>1108.44</ele>
        <time>2023-09-07T07:37:10Z</time>
      </trkpt>
      <trkpt lat="44.84633" lon="3.82713">
        <ele>1108.44</ele>
        <time>2023-09-07T07:37:26Z</time>
      </trkpt>
      <trkpt lat="44.84621" lon="3.82735">
        <ele>1105.44</ele>
        <time>2023-09-07T07:37:42Z</time>
      </trkpt>
      <trkpt lat="44.84611" lon="3.82762">
        <ele>1105.44</ele>
        <time>2023-09-07T07:38:42Z</time>
      </trkpt>
      <trkpt lat="44.84593" lon="3.82767">
        <ele>1102.44</ele>
        <time>2023-09-07T07:39:02Z</time>
      </trkpt>
      <trkpt lat="44.84579" lon="3.82787">
        <ele>1104.44</ele>
        <time>2023-09-07T07:39:32Z</time>
      </trkpt>
      <trkpt lat="44.84562" lon="3.828">
        <ele>1104.44</ele>
        <time>2023-09-07T07:39:48Z</time>
      </trkpt>
      <trkpt lat="44.84545" lon="3.82816">
        <ele>1104.44</ele>
        <time>2023-09-07T07:40:04Z</time>
      </trkpt>
      <trkpt lat="44.84529" lon="3.82834">
        <ele>1103.44</ele>
        <time>2023-09-07T07:40:20Z</time>
      </trkpt>
      <trkpt lat="44.84513" lon="3.82852">
        <ele>1103.44</ele>
        <time>2023-09-07T07:40:36Z</time>
      </trkpt>
      <trkpt lat="44.84494" lon="3.82868">
        <ele>1099.44</ele>
        <time>2023-09-07T07:40:52Z</time>
      </trkpt>
      <trkpt lat="44.84476" lon="3.82881">
        <ele>1099.44</ele>
        <time>2023-09-07T07:41:08Z</time>
      </trkpt>
      <trkpt lat="44.84458" lon="3.82897">
        <ele>1099.44</ele>
        <time>2023-09-07T07:41:24Z</time>
      </trkpt>
      <trkpt lat="44.84442" lon="3.82911">
        <ele>1099.44</ele>
        <time>2023-09-07T07:41:40Z</time>
      </trkpt>
      <trkpt lat="44.84427" lon="3.82933">
        <ele>1097.44</ele>
        <time>2023-09-07T07:42:04Z</time>
      </trkpt>
      <trkpt lat="44.84411" lon="3.82948">
        <ele>1095.44</ele>
        <time>2023-09-07T07:42:20Z</time>
      </trkpt>
      <trkpt lat="44.84397" lon="3.82965">
        <ele>1095.44</ele>
        <time>2023-09-07T07:42:36Z</time>
      </trkpt>
      <trkpt lat="44.84386" lon="3.82986">
        <ele>1097.44</ele>
        <time>2023-09-07T07:42:52Z</time>
      </trkpt>
      <trkpt lat="44.8437" lon="3.83005">
        <ele>1097.44</ele>
        <time>2023-09-07T07:43:12Z</time>
      </trkpt>
      <trkpt lat="44.84348" lon="3.83004">
        <ele>1100.44</ele>
        <time>2023-09-07T07:43:52Z</time>
      </trkpt>
      <trkpt lat="44.8434" lon="3.83028">
        <ele>1102.44</ele>
        <time>2023-09-07T07:45:21Z</time>
      </trkpt>
      <trkpt lat="44.84356" lon="3.83049">
        <ele>1099.44</ele>
        <time>2023-09-07T07:51:30Z</time>
      </trkpt>
      <trkpt lat="44.84353" lon="3.8302">
        <ele>1103.44</ele>
        <time>2023-09-07T07:52:58Z</time>
      </trkpt>
      <trkpt lat="44.84336" lon="3.83">
        <ele>1097.44</ele>
        <time>2023-09-07T07:56:06Z</time>
      </trkpt>
      <trkpt lat="44.84316" lon="3.82991">
        <ele>1098.44</ele>
        <time>2023-09-07T07:56:30Z</time>
      </trkpt>
      <trkpt lat="44.84296" lon="3.82992">
        <ele>1100.44</ele>
        <time>2023-09-07T07:57:50Z</time>
      </trkpt>
      <trkpt lat="44.84276" lon="3.82997">
        <ele>1102.44</ele>
        <time>2023-09-07T07:58:08Z</time>
      </trkpt>
      <trkpt lat="44.84253" lon="3.82991">
        <ele>1104.44</ele>
        <time>2023-09-07T07:58:30Z</time>
      </trkpt>
      <trkpt lat="44.84234" lon="3.82987">
        <ele>1104.44</ele>
        <time>2023-09-07T07:58:46Z</time>
      </trkpt>
      <trkpt lat="44.84213" lon="3.82981">
        <ele>1106.44</ele>
        <time>2023-09-07T07:59:06Z</time>
      </trkpt>
      <trkpt lat="44.84192" lon="3.82976">
        <ele>1104.44</ele>
        <time>2023-09-07T07:59:26Z</time>
      </trkpt>
      <trkpt lat="44.8417" lon="3.82979">
        <ele>1101.44</ele>
        <time>2023-09-07T07:59:46Z</time>
      </trkpt>
      <trkpt lat="44.84153" lon="3.8299">
        <ele>1102.44</ele>
        <time>2023-09-07T08:00:06Z</time>
      </trkpt>
      <trkpt lat="44.84136" lon="3.83">
        <ele>1103.44</ele>
        <time>2023-09-07T08:00:22Z</time>
      </trkpt>
      <trkpt lat="44.84121" lon="3.83014">
        <ele>1099.44</ele>
        <time>2023-09-07T08:00:46Z</time>
      </trkpt>
      <trkpt lat="44.84105" lon="3.83027">
        <ele>1098.44</ele>
        <time>2023-09-07T08:01:02Z</time>
      </trkpt>
      <trkpt lat="44.84088" lon="3.83042">
        <ele>1099.44</ele>
        <time>2023-09-07T08:01:18Z</time>
      </trkpt>
      <trkpt lat="44.84075" lon="3.8306">
        <ele>1099.44</ele>
        <time>2023-09-07T08:01:34Z</time>
      </trkpt>
      <trkpt lat="44.84057" lon="3.83071">
        <ele>1099.44</ele>
        <time>2023-09-07T08:01:50Z</time>
      </trkpt>
      <trkpt lat="44.84039" lon="3.83082">
        <ele>1097.44</ele>
        <time>2023-09-07T08:02:10Z</time>
      </trkpt>
      <trkpt lat="44.84026" lon="3.83103">
        <ele>1096.44</ele>
        <time>2023-09-07T08:02:26Z</time>
      </trkpt>
      <trkpt lat="44.84017" lon="3.83127">
        <ele>1098.44</ele>
        <time>2023-09-07T08:02:42Z</time>
      </trkpt>
      <trkpt lat="44.84005" lon="3.83149">
        <ele>1098.44</ele>
        <time>2023-09-07T08:02:58Z</time>
      </trkpt>
      <trkpt lat="44.8399" lon="3.83163">
        <ele>1098.44</ele>
        <time>2023-09-07T08:03:14Z</time>
      </trkpt>
      <trkpt lat="44.83975" lon="3.8318">
        <ele>1098.44</ele>
        <time>2023-09-07T08:03:30Z</time>
      </trkpt>
      <trkpt lat="44.83959" lon="3.83198">
        <ele>1097.44</ele>
        <time>2023-09-07T08:03:50Z</time>
      </trkpt>
      <trkpt lat="44.83945" lon="3.83223">
        <ele>1096.44</ele>
        <time>2023-09-07T08:04:10Z</time>
      </trkpt>
      <trkpt lat="44.83931" lon="3.83239">
        <ele>1098.44</ele>
        <time>2023-09-07T08:04:26Z</time>
      </trkpt>
      <trkpt lat="44.83916" lon="3.83255">
        <ele>1103.44</ele>
        <time>2023-09-07T08:04:50Z</time>
      </trkpt>
      <trkpt lat="44.83898" lon="3.83268">
        <ele>1102.44</ele>
        <time>2023-09-07T08:06:14Z</time>
      </trkpt>
      <trkpt lat="44.83881" lon="3.83279">
        <ele>1102.44</ele>
        <time>2023-09-07T08:06:30Z</time>
      </trkpt>
      <trkpt lat="44.8386" lon="3.83285">
        <ele>1102.44</ele>
        <time>2023-09-07T08:06:50Z</time>
      </trkpt>
      <trkpt lat="44.8384" lon="3.83281">
        <ele>1103.44</ele>
        <time>2023-09-07T08:07:10Z</time>
      </trkpt>
      <trkpt lat="44.83822" lon="3.83282">
        <ele>1102.44</ele>
        <time>2023-09-07T08:07:26Z</time>
      </trkpt>
      <trkpt lat="44.83801" lon="3.83281">
        <ele>1103.44</ele>
        <time>2023-09-07T08:07:42Z</time>
      </trkpt>
      <trkpt lat="44.83783" lon="3.83281">
        <ele>1104.44</ele>
        <time>2023-09-07T08:08:06Z</time>
      </trkpt>
      <trkpt lat="44.83762" lon="3.83286">
        <ele>1105.44</ele>
        <time>2023-09-07T08:08:26Z</time>
      </trkpt>
      <trkpt lat="44.83741" lon="3.83291">
        <ele>1105.44</ele>
        <time>2023-09-07T08:08:46Z</time>
      </trkpt>
      <trkpt lat="44.83722" lon="3.83292">
        <ele>1105.44</ele>
        <time>2023-09-07T08:09:02Z</time>
      </trkpt>
      <trkpt lat="44.83701" lon="3.83295">
        <ele>1106.44</ele>
        <time>2023-09-07T08:09:22Z</time>
      </trkpt>
      <trkpt lat="44.8368" lon="3.83299">
        <ele>1103.44</ele>
        <time>2023-09-07T08:09:42Z</time>
      </trkpt>
      <trkpt lat="44.8366" lon="3.83303">
        <ele>1108.44</ele>
        <time>2023-09-07T08:10:02Z</time>
      </trkpt>
      <trkpt lat="44.8364" lon="3.83301">
        <ele>1110.44</ele>
        <time>2023-09-07T08:10:46Z</time>
      </trkpt>
      <trkpt lat="44.83621" lon="3.83301">
        <ele>1110.44</ele>
        <time>2023-09-07T08:11:02Z</time>
      </trkpt>
      <trkpt lat="44.83601" lon="3.83301">
        <ele>1110.44</ele>
        <time>2023-09-07T08:11:18Z</time>
      </trkpt>
      <trkpt lat="44.83579" lon="3.83304">
        <ele>1112.44</ele>
        <time>2023-09-07T08:11:38Z</time>
      </trkpt>
      <trkpt lat="44.83561" lon="3.83304">
        <ele>1111.44</ele>
        <time>2023-09-07T08:11:54Z</time>
      </trkpt>
      <trkpt lat="44.83539" lon="3.83308">
        <ele>1112.44</ele>
        <time>2023-09-07T08:12:14Z</time>
      </trkpt>
      <trkpt lat="44.8352" lon="3.83312">
        <ele>1113.44</ele>
        <time>2023-09-07T08:12:30Z</time>
      </trkpt>
      <trkpt lat="44.83499" lon="3.83321">
        <ele>1114.44</ele>
        <time>2023-09-07T08:12:50Z</time>
      </trkpt>
      <trkpt lat="44.83485" lon="3.83303">
        <ele>1115.44</ele>
        <time>2023-09-07T08:13:06Z</time>
      </trkpt>
      <trkpt lat="44.83472" lon="3.83284">
        <ele>1116.44</ele>
        <time>2023-09-07T08:13:22Z</time>
      </trkpt>
      <trkpt lat="44.83454" lon="3.83267">
        <ele>1122.44</ele>
        <time>2023-09-07T08:14:14Z</time>
      </trkpt>
      <trkpt lat="44.83443" lon="3.83246">
        <ele>1120.44</ele>
        <time>2023-09-07T08:14:42Z</time>
      </trkpt>
      <trkpt lat="44.83426" lon="3.83232">
        <ele>1121.44</ele>
        <time>2023-09-07T08:15:30Z</time>
      </trkpt>
      <trkpt lat="44.83413" lon="3.83211">
        <ele>1124.44</ele>
        <time>2023-09-07T08:15:51Z</time>
      </trkpt>
      <trkpt lat="44.83395" lon="3.83194">
        <ele>1123.44</ele>
        <time>2023-09-07T08:16:11Z</time>
      </trkpt>
      <trkpt lat="44.83376" lon="3.83179">
        <ele>1122.44</ele>
        <time>2023-09-07T08:16:35Z</time>
      </trkpt>
      <trkpt lat="44.83358" lon="3.83162">
        <ele>1122.44</ele>
        <time>2023-09-07T08:16:55Z</time>
      </trkpt>
      <trkpt lat="44.83341" lon="3.83145">
        <ele>1124.44</ele>
        <time>2023-09-07T08:17:15Z</time>
      </trkpt>
      <trkpt lat="44.83327" lon="3.83128">
        <ele>1125.44</ele>
        <time>2023-09-07T08:17:31Z</time>
      </trkpt>
      <trkpt lat="44.8331" lon="3.8311">
        <ele>1127.44</ele>
        <time>2023-09-07T08:17:51Z</time>
      </trkpt>
      <trkpt lat="44.83293" lon="3.83095">
        <ele>1127.44</ele>
        <time>2023-09-07T08:18:11Z</time>
      </trkpt>
      <trkpt lat="44.83274" lon="3.83081">
        <ele>1128.44</ele>
        <time>2023-09-07T08:18:32Z</time>
      </trkpt>
      <trkpt lat="44.83257" lon="3.83069">
        <ele>1127.44</ele>
        <time>2023-09-07T08:18:50Z</time>
      </trkpt>
      <trkpt lat="44.83241" lon="3.83055">
        <ele>1127.44</ele>
        <time>2023-09-07T08:19:06Z</time>
      </trkpt>
      <trkpt lat="44.83225" lon="3.83032">
        <ele>1129.44</ele>
        <time>2023-09-07T08:19:26Z</time>
      </trkpt>
      <trkpt lat="44.8321" lon="3.83017">
        <ele>1129.44</ele>
        <time>2023-09-07T08:19:42Z</time>
      </trkpt>
      <trkpt lat="44.83193" lon="3.82997">
        <ele>1129.44</ele>
        <time>2023-09-07T08:20:02Z</time>
      </trkpt>
      <trkpt lat="44.83181" lon="3.82975">
        <ele>1129.44</ele>
        <time>2023-09-07T08:20:18Z</time>
      </trkpt>
      <trkpt lat="44.83163" lon="3.82956">
        <ele>1129.44</ele>
        <time>2023-09-07T08:20:38Z</time>
      </trkpt>
      <trkpt lat="44.83149" lon="3.82941">
        <ele>1129.44</ele>
        <time>2023-09-07T08:20:54Z</time>
      </trkpt>
      <trkpt lat="44.83137" lon="3.82917">
        <ele>1125.44</ele>
        <time>2023-09-07T08:21:38Z</time>
      </trkpt>
      <trkpt lat="44.83126" lon="3.82891">
        <ele>1127.44</ele>
        <time>2023-09-07T08:21:58Z</time>
      </trkpt>
      <trkpt lat="44.83114" lon="3.82865">
        <ele>1127.44</ele>
        <time>2023-09-07T08:22:19Z</time>
      </trkpt>
      <trkpt lat="44.83105" lon="3.82841">
        <ele>1126.44</ele>
        <time>2023-09-07T08:22:35Z</time>
      </trkpt>
      <trkpt lat="44.83096" lon="3.82817">
        <ele>1126.44</ele>
        <time>2023-09-07T08:22:51Z</time>
      </trkpt>
      <trkpt lat="44.83087" lon="3.82788">
        <ele>1125.44</ele>
        <time>2023-09-07T08:23:11Z</time>
      </trkpt>
      <trkpt lat="44.83079" lon="3.82765">
        <ele>1125.44</ele>
        <time>2023-09-07T08:23:28Z</time>
      </trkpt>
      <trkpt lat="44.83065" lon="3.82748">
        <ele>1122.44</ele>
        <time>2023-09-07T08:23:44Z</time>
      </trkpt>
      <trkpt lat="44.83047" lon="3.82764">
        <ele>1117.44</ele>
        <time>2023-09-07T08:24:00Z</time>
      </trkpt>
      <trkpt lat="44.83037" lon="3.82741">
        <ele>1112.44</ele>
        <time>2023-09-07T08:24:20Z</time>
      </trkpt>
      <trkpt lat="44.83036" lon="3.82711">
        <ele>1117.44</ele>
        <time>2023-09-07T08:24:44Z</time>
      </trkpt>
      <trkpt lat="44.83036" lon="3.82684">
        <ele>1121.44</ele>
        <time>2023-09-07T08:25:01Z</time>
      </trkpt>
      <trkpt lat="44.83035" lon="3.82655">
        <ele>1122.44</ele>
        <time>2023-09-07T08:25:25Z</time>
      </trkpt>
      <trkpt lat="44.83034" lon="3.82625">
        <ele>1125.44</ele>
        <time>2023-09-07T08:25:45Z</time>
      </trkpt>
      <trkpt lat="44.83029" lon="3.82598">
        <ele>1130.44</ele>
        <time>2023-09-07T08:26:05Z</time>
      </trkpt>
      <trkpt lat="44.83023" lon="3.82571">
        <ele>1128.44</ele>
        <time>2023-09-07T08:26:25Z</time>
      </trkpt>
      <trkpt lat="44.83014" lon="3.82547">
        <ele>1126.44</ele>
        <time>2023-09-07T08:27:13Z</time>
      </trkpt>
      <trkpt lat="44.83007" lon="3.82519">
        <ele>1129.44</ele>
        <time>2023-09-07T08:27:33Z</time>
      </trkpt>
      <trkpt lat="44.83005" lon="3.82494">
        <ele>1130.44</ele>
        <time>2023-09-07T08:28:01Z</time>
      </trkpt>
      <trkpt lat="44.82986" lon="3.82483">
        <ele>1128.44</ele>
        <time>2023-09-07T08:28:45Z</time>
      </trkpt>
      <trkpt lat="44.82973" lon="3.82459">
        <ele>1130.44</ele>
        <time>2023-09-07T08:29:05Z</time>
      </trkpt>
      <trkpt lat="44.8296" lon="3.82438">
        <ele>1128.44</ele>
        <time>2023-09-07T08:29:25Z</time>
      </trkpt>
      <trkpt lat="44.82945" lon="3.82415">
        <ele>1129.44</ele>
        <time>2023-09-07T08:29:45Z</time>
      </trkpt>
      <trkpt lat="44.82933" lon="3.82394">
        <ele>1128.44</ele>
        <time>2023-09-07T08:30:01Z</time>
      </trkpt>
      <trkpt lat="44.82918" lon="3.82378">
        <ele>1127.44</ele>
        <time>2023-09-07T08:30:17Z</time>
      </trkpt>
      <trkpt lat="44.82899" lon="3.82365">
        <ele>1122.44</ele>
        <time>2023-09-07T08:30:41Z</time>
      </trkpt>
      <trkpt lat="44.8288" lon="3.82355">
        <ele>1123.44</ele>
        <time>2023-09-07T08:30:57Z</time>
      </trkpt>
      <trkpt lat="44.82862" lon="3.82344">
        <ele>1122.44</ele>
        <time>2023-09-07T08:31:13Z</time>
      </trkpt>
      <trkpt lat="44.82841" lon="3.82337">
        <ele>1121.44</ele>
        <time>2023-09-07T08:31:29Z</time>
      </trkpt>
      <trkpt lat="44.82822" lon="3.82329">
        <ele>1121.44</ele>
        <time>2023-09-07T08:31:45Z</time>
      </trkpt>
      <trkpt lat="44.82805" lon="3.82319">
        <ele>1120.44</ele>
        <time>2023-09-07T08:32:01Z</time>
      </trkpt>
      <trkpt lat="44.82787" lon="3.82312">
        <ele>1120.44</ele>
        <time>2023-09-07T08:32:17Z</time>
      </trkpt>
      <trkpt lat="44.8277" lon="3.82297">
        <ele>1119.44</ele>
        <time>2023-09-07T08:32:33Z</time>
      </trkpt>
      <trkpt lat="44.82755" lon="3.82281">
        <ele>1119.44</ele>
        <time>2023-09-07T08:32:49Z</time>
      </trkpt>
      <trkpt lat="44.82737" lon="3.82264">
        <ele>1117.44</ele>
        <time>2023-09-07T08:33:09Z</time>
      </trkpt>
      <trkpt lat="44.82719" lon="3.82245">
        <ele>1115.44</ele>
        <time>2023-09-07T08:33:29Z</time>
      </trkpt>
      <trkpt lat="44.82704" lon="3.82224">
        <ele>1114.44</ele>
        <time>2023-09-07T08:34:50Z</time>
      </trkpt>
      <trkpt lat="44.82695" lon="3.822">
        <ele>1114.44</ele>
        <time>2023-09-07T08:35:06Z</time>
      </trkpt>
      <trkpt lat="44.82684" lon="3.82179">
        <ele>1114.44</ele>
        <time>2023-09-07T08:35:26Z</time>
      </trkpt>
      <trkpt lat="44.8267" lon="3.8216">
        <ele>1112.44</ele>
        <time>2023-09-07T08:35:42Z</time>
      </trkpt>
      <trkpt lat="44.82654" lon="3.82139">
        <ele>1110.44</ele>
        <time>2023-09-07T08:36:02Z</time>
      </trkpt>
      <trkpt lat="44.8264" lon="3.82118">
        <ele>1107.44</ele>
        <time>2023-09-07T08:36:30Z</time>
      </trkpt>
      <trkpt lat="44.82626" lon="3.821">
        <ele>1105.44</ele>
        <time>2023-09-07T08:36:50Z</time>
      </trkpt>
      <trkpt lat="44.82613" lon="3.82081">
        <ele>1107.44</ele>
        <time>2023-09-07T08:37:06Z</time>
      </trkpt>
      <trkpt lat="44.826" lon="3.82061">
        <ele>1105.44</ele>
        <time>2023-09-07T08:37:22Z</time>
      </trkpt>
      <trkpt lat="44.82586" lon="3.82037">
        <ele>1104.44</ele>
        <time>2023-09-07T08:37:42Z</time>
      </trkpt>
      <trkpt lat="44.82567" lon="3.82016">
        <ele>1103.44</ele>
        <time>2023-09-07T08:38:03Z</time>
      </trkpt>
      <trkpt lat="44.82549" lon="3.82">
        <ele>1101.44</ele>
        <time>2023-09-07T08:38:23Z</time>
      </trkpt>
      <trkpt lat="44.82534" lon="3.81986">
        <ele>1101.44</ele>
        <time>2023-09-07T08:38:39Z</time>
      </trkpt>
      <trkpt lat="44.82519" lon="3.81972">
        <ele>1100.44</ele>
        <time>2023-09-07T08:38:55Z</time>
      </trkpt>
      <trkpt lat="44.82502" lon="3.8196">
        <ele>1100.44</ele>
        <time>2023-09-07T08:39:11Z</time>
      </trkpt>
      <trkpt lat="44.82482" lon="3.81947">
        <ele>1097.44</ele>
        <time>2023-09-07T08:39:31Z</time>
      </trkpt>
      <trkpt lat="44.82465" lon="3.81933">
        <ele>1096.44</ele>
        <time>2023-09-07T08:39:47Z</time>
      </trkpt>
      <trkpt lat="44.82449" lon="3.81917">
        <ele>1097.44</ele>
        <time>2023-09-07T08:40:03Z</time>
      </trkpt>
      <trkpt lat="44.82434" lon="3.81902">
        <ele>1096.44</ele>
        <time>2023-09-07T08:40:19Z</time>
      </trkpt>
      <trkpt lat="44.82418" lon="3.81886">
        <ele>1095.44</ele>
        <time>2023-09-07T08:40:35Z</time>
      </trkpt>
      <trkpt lat="44.82403" lon="3.8187">
        <ele>1094.44</ele>
        <time>2023-09-07T08:40:51Z</time>
      </trkpt>
      <trkpt lat="44.82387" lon="3.81854">
        <ele>1092.44</ele>
        <time>2023-09-07T08:41:07Z</time>
      </trkpt>
      <trkpt lat="44.8237" lon="3.81839">
        <ele>1091.44</ele>
        <time>2023-09-07T08:41:23Z</time>
      </trkpt>
      <trkpt lat="44.82354" lon="3.81824">
        <ele>1090.44</ele>
        <time>2023-09-07T08:41:39Z</time>
      </trkpt>
      <trkpt lat="44.82339" lon="3.81807">
        <ele>1088.44</ele>
        <time>2023-09-07T08:41:55Z</time>
      </trkpt>
      <trkpt lat="44.82324" lon="3.81788">
        <ele>1086.44</ele>
        <time>2023-09-07T08:42:11Z</time>
      </trkpt>
      <trkpt lat="44.82312" lon="3.81767">
        <ele>1085.44</ele>
        <time>2023-09-07T08:42:27Z</time>
      </trkpt>
      <trkpt lat="44.82298" lon="3.81742">
        <ele>1084.44</ele>
        <time>2023-09-07T08:42:47Z</time>
      </trkpt>
      <trkpt lat="44.82286" lon="3.81718">
        <ele>1083.44</ele>
        <time>2023-09-07T08:43:03Z</time>
      </trkpt>
      <trkpt lat="44.82274" lon="3.81694">
        <ele>1084.44</ele>
        <time>2023-09-07T08:43:19Z</time>
      </trkpt>
      <trkpt lat="44.82264" lon="3.81671">
        <ele>1083.44</ele>
        <time>2023-09-07T08:43:35Z</time>
      </trkpt>
      <trkpt lat="44.82253" lon="3.81643">
        <ele>1082.44</ele>
        <time>2023-09-07T08:43:55Z</time>
      </trkpt>
      <trkpt lat="44.82244" lon="3.81618">
        <ele>1081.44</ele>
        <time>2023-09-07T08:44:11Z</time>
      </trkpt>
      <trkpt lat="44.82234" lon="3.81596">
        <ele>1079.44</ele>
        <time>2023-09-07T08:44:27Z</time>
      </trkpt>
      <trkpt lat="44.82225" lon="3.81571">
        <ele>1079.44</ele>
        <time>2023-09-07T08:44:43Z</time>
      </trkpt>
      <trkpt lat="44.82216" lon="3.81549">
        <ele>1077.44</ele>
        <time>2023-09-07T08:44:59Z</time>
      </trkpt>
      <trkpt lat="44.82212" lon="3.81523">
        <ele>1075.44</ele>
        <time>2023-09-07T08:45:43Z</time>
      </trkpt>
      <trkpt lat="44.82206" lon="3.81494">
        <ele>1075.44</ele>
        <time>2023-09-07T08:45:59Z</time>
      </trkpt>
      <trkpt lat="44.822" lon="3.81465">
        <ele>1073.44</ele>
        <time>2023-09-07T08:46:15Z</time>
      </trkpt>
      <trkpt lat="44.82194" lon="3.81434">
        <ele>1072.44</ele>
        <time>2023-09-07T08:46:31Z</time>
      </trkpt>
      <trkpt lat="44.82188" lon="3.81402">
        <ele>1069.44</ele>
        <time>2023-09-07T08:46:47Z</time>
      </trkpt>
      <trkpt lat="44.82175" lon="3.81379">
        <ele>1068.44</ele>
        <time>2023-09-07T08:47:03Z</time>
      </trkpt>
      <trkpt lat="44.82164" lon="3.81358">
        <ele>1066.44</ele>
        <time>2023-09-07T08:47:19Z</time>
      </trkpt>
      <trkpt lat="44.82156" lon="3.81331">
        <ele>1067.44</ele>
        <time>2023-09-07T08:47:47Z</time>
      </trkpt>
      <trkpt lat="44.82152" lon="3.81306">
        <ele>1066.44</ele>
        <time>2023-09-07T08:48:03Z</time>
      </trkpt>
      <trkpt lat="44.82149" lon="3.81278">
        <ele>1065.44</ele>
        <time>2023-09-07T08:48:19Z</time>
      </trkpt>
      <trkpt lat="44.82137" lon="3.81253">
        <ele>1061.44</ele>
        <time>2023-09-07T08:48:35Z</time>
      </trkpt>
      <trkpt lat="44.82128" lon="3.81228">
        <ele>1057.44</ele>
        <time>2023-09-07T08:48:51Z</time>
      </trkpt>
      <trkpt lat="44.82119" lon="3.81204">
        <ele>1056.44</ele>
        <time>2023-09-07T08:49:07Z</time>
      </trkpt>
      <trkpt lat="44.82114" lon="3.81179">
        <ele>1055.44</ele>
        <time>2023-09-07T08:49:23Z</time>
      </trkpt>
      <trkpt lat="44.82112" lon="3.8115">
        <ele>1053.44</ele>
        <time>2023-09-07T08:49:43Z</time>
      </trkpt>
      <trkpt lat="44.82112" lon="3.81124">
        <ele>1052.44</ele>
        <time>2023-09-07T08:50:03Z</time>
      </trkpt>
      <trkpt lat="44.8211" lon="3.81153">
        <ele>1053.44</ele>
        <time>2023-09-07T09:17:24Z</time>
      </trkpt>
      <trkpt lat="44.82113" lon="3.81182">
        <ele>1055.44</ele>
        <time>2023-09-07T09:17:48Z</time>
      </trkpt>
      <trkpt lat="44.82101" lon="3.81203">
        <ele>1055.44</ele>
        <time>2023-09-07T09:18:08Z</time>
      </trkpt>
      <trkpt lat="44.82082" lon="3.8121">
        <ele>1052.44</ele>
        <time>2023-09-07T09:18:32Z</time>
      </trkpt>
      <trkpt lat="44.82064" lon="3.81208">
        <ele>1052.44</ele>
        <time>2023-09-07T09:18:56Z</time>
      </trkpt>
      <trkpt lat="44.82045" lon="3.81212">
        <ele>1053.44</ele>
        <time>2023-09-07T09:19:36Z</time>
      </trkpt>
      <trkpt lat="44.82026" lon="3.812">
        <ele>1049.44</ele>
        <time>2023-09-07T09:20:00Z</time>
      </trkpt>
      <trkpt lat="44.82008" lon="3.81187">
        <ele>1047.44</ele>
        <time>2023-09-07T09:20:25Z</time>
      </trkpt>
      <trkpt lat="44.81992" lon="3.81173">
        <ele>1048.44</ele>
        <time>2023-09-07T09:20:45Z</time>
      </trkpt>
      <trkpt lat="44.81975" lon="3.81156">
        <ele>1046.44</ele>
        <time>2023-09-07T09:21:09Z</time>
      </trkpt>
      <trkpt lat="44.81957" lon="3.81141">
        <ele>1047.44</ele>
        <time>2023-09-07T09:21:29Z</time>
      </trkpt>
      <trkpt lat="44.81939" lon="3.81132">
        <ele>1046.44</ele>
        <time>2023-09-07T09:21:49Z</time>
      </trkpt>
      <trkpt lat="44.81919" lon="3.81136">
        <ele>1047.44</ele>
        <time>2023-09-07T09:22:09Z</time>
      </trkpt>
      <trkpt lat="44.81901" lon="3.81147">
        <ele>1049.44</ele>
        <time>2023-09-07T09:22:29Z</time>
      </trkpt>
      <trkpt lat="44.81881" lon="3.81158">
        <ele>1050.44</ele>
        <time>2023-09-07T09:22:49Z</time>
      </trkpt>
      <trkpt lat="44.81863" lon="3.8117">
        <ele>1048.44</ele>
        <time>2023-09-07T09:23:09Z</time>
      </trkpt>
      <trkpt lat="44.81844" lon="3.81183">
        <ele>1049.44</ele>
        <time>2023-09-07T09:23:29Z</time>
      </trkpt>
      <trkpt lat="44.81827" lon="3.81195">
        <ele>1048.44</ele>
        <time>2023-09-07T09:23:49Z</time>
      </trkpt>
      <trkpt lat="44.81831" lon="3.8122">
        <ele>1049.44</ele>
        <time>2023-09-07T09:25:13Z</time>
      </trkpt>
      <trkpt lat="44.81846" lon="3.81242">
        <ele>1050.44</ele>
        <time>2023-09-07T09:25:33Z</time>
      </trkpt>
      <trkpt lat="44.81859" lon="3.81265">
        <ele>1048.44</ele>
        <time>2023-09-07T09:25:53Z</time>
      </trkpt>
      <trkpt lat="44.81866" lon="3.81292">
        <ele>1047.44</ele>
        <time>2023-09-07T09:26:13Z</time>
      </trkpt>
      <trkpt lat="44.81875" lon="3.81324">
        <ele>1046.44</ele>
        <time>2023-09-07T09:26:44Z</time>
      </trkpt>
      <trkpt lat="44.81886" lon="3.81352">
        <ele>1043.44</ele>
        <time>2023-09-07T09:27:25Z</time>
      </trkpt>
      <trkpt lat="44.81893" lon="3.81377">
        <ele>1043.44</ele>
        <time>2023-09-07T09:27:41Z</time>
      </trkpt>
      <trkpt lat="44.81897" lon="3.81408">
        <ele>1040.44</ele>
        <time>2023-09-07T09:27:57Z</time>
      </trkpt>
      <trkpt lat="44.81898" lon="3.81437">
        <ele>1041.44</ele>
        <time>2023-09-07T09:28:13Z</time>
      </trkpt>
      <trkpt lat="44.8189" lon="3.81464">
        <ele>1038.44</ele>
        <time>2023-09-07T09:28:33Z</time>
      </trkpt>
      <trkpt lat="44.81879" lon="3.81484">
        <ele>1031.44</ele>
        <time>2023-09-07T09:28:53Z</time>
      </trkpt>
      <trkpt lat="44.81865" lon="3.81505">
        <ele>1027.44</ele>
        <time>2023-09-07T09:29:17Z</time>
      </trkpt>
      <trkpt lat="44.81852" lon="3.81532">
        <ele>1027.44</ele>
        <time>2023-09-07T09:29:37Z</time>
      </trkpt>
      <trkpt lat="44.81836" lon="3.81558">
        <ele>1027.44</ele>
        <time>2023-09-07T09:29:57Z</time>
      </trkpt>
      <trkpt lat="44.81822" lon="3.81573">
        <ele>1028.44</ele>
        <time>2023-09-07T09:30:18Z</time>
      </trkpt>
      <trkpt lat="44.81801" lon="3.81566">
        <ele>1026.44</ele>
        <time>2023-09-07T09:30:38Z</time>
      </trkpt>
      <trkpt lat="44.81784" lon="3.81547">
        <ele>1031.44</ele>
        <time>2023-09-07T09:30:58Z</time>
      </trkpt>
      <trkpt lat="44.81767" lon="3.81536">
        <ele>1032.44</ele>
        <time>2023-09-07T09:31:22Z</time>
      </trkpt>
      <trkpt lat="44.81748" lon="3.81524">
        <ele>1033.44</ele>
        <time>2023-09-07T09:31:50Z</time>
      </trkpt>
      <trkpt lat="44.81731" lon="3.81508">
        <ele>1034.44</ele>
        <time>2023-09-07T09:32:06Z</time>
      </trkpt>
      <trkpt lat="44.81713" lon="3.81495">
        <ele>1033.44</ele>
        <time>2023-09-07T09:32:26Z</time>
      </trkpt>
      <trkpt lat="44.81698" lon="3.81482">
        <ele>1038.44</ele>
        <time>2023-09-07T09:32:46Z</time>
      </trkpt>
      <trkpt lat="44.8168" lon="3.81471">
        <ele>1043.44</ele>
        <time>2023-09-07T09:33:02Z</time>
      </trkpt>
      <trkpt lat="44.81664" lon="3.81457">
        <ele>1044.44</ele>
        <time>2023-09-07T09:33:18Z</time>
      </trkpt>
      <trkpt lat="44.81648" lon="3.81442">
        <ele>1043.44</ele>
        <time>2023-09-07T09:33:34Z</time>
      </trkpt>
      <trkpt lat="44.81627" lon="3.81439">
        <ele>1045.44</ele>
        <time>2023-09-07T09:35:27Z</time>
      </trkpt>
      <trkpt lat="44.81606" lon="3.81443">
        <ele>1046.44</ele>
        <time>2023-09-07T09:35:47Z</time>
      </trkpt>
      <trkpt lat="44.81586" lon="3.81447">
        <ele>1044.44</ele>
        <time>2023-09-07T09:36:07Z</time>
      </trkpt>
      <trkpt lat="44.81564" lon="3.8145">
        <ele>1046.44</ele>
        <time>2023-09-07T09:36:27Z</time>
      </trkpt>
      <trkpt lat="44.81545" lon="3.81448">
        <ele>1047.44</ele>
        <time>2023-09-07T09:36:43Z</time>
      </trkpt>
      <trkpt lat="44.81523" lon="3.81446">
        <ele>1046.44</ele>
        <time>2023-09-07T09:37:03Z</time>
      </trkpt>
      <trkpt lat="44.81502" lon="3.81449">
        <ele>1047.44</ele>
        <time>2023-09-07T09:37:23Z</time>
      </trkpt>
      <trkpt lat="44.81483" lon="3.81454">
        <ele>1047.44</ele>
        <time>2023-09-07T09:37:39Z</time>
      </trkpt>
      <trkpt lat="44.81463" lon="3.81464">
        <ele>1046.44</ele>
        <time>2023-09-07T09:37:59Z</time>
      </trkpt>
      <trkpt lat="44.81445" lon="3.81475">
        <ele>1045.44</ele>
        <time>2023-09-07T09:38:19Z</time>
      </trkpt>
      <trkpt lat="44.81424" lon="3.81472">
        <ele>1047.44</ele>
        <time>2023-09-07T09:38:39Z</time>
      </trkpt>
      <trkpt lat="44.81409" lon="3.81489">
        <ele>1048.44</ele>
        <time>2023-09-07T09:38:59Z</time>
      </trkpt>
      <trkpt lat="44.81394" lon="3.81513">
        <ele>1046.44</ele>
        <time>2023-09-07T09:39:19Z</time>
      </trkpt>
      <trkpt lat="44.81382" lon="3.81533">
        <ele>1047.44</ele>
        <time>2023-09-07T09:39:35Z</time>
      </trkpt>
      <trkpt lat="44.81365" lon="3.81554">
        <ele>1047.44</ele>
        <time>2023-09-07T09:39:55Z</time>
      </trkpt>
      <trkpt lat="44.81351" lon="3.81573">
        <ele>1047.44</ele>
        <time>2023-09-07T09:40:15Z</time>
      </trkpt>
      <trkpt lat="44.81339" lon="3.81596">
        <ele>1047.44</ele>
        <time>2023-09-07T09:40:35Z</time>
      </trkpt>
      <trkpt lat="44.81325" lon="3.81613">
        <ele>1046.44</ele>
        <time>2023-09-07T09:40:51Z</time>
      </trkpt>
      <trkpt lat="44.81308" lon="3.81629">
        <ele>1047.44</ele>
        <time>2023-09-07T09:41:11Z</time>
      </trkpt>
      <trkpt lat="44.81291" lon="3.8164">
        <ele>1047.44</ele>
        <time>2023-09-07T09:41:27Z</time>
      </trkpt>
      <trkpt lat="44.81271" lon="3.81648">
        <ele>1047.44</ele>
        <time>2023-09-07T09:41:47Z</time>
      </trkpt>
      <trkpt lat="44.81251" lon="3.81659">
        <ele>1046.44</ele>
        <time>2023-09-07T09:42:07Z</time>
      </trkpt>
      <trkpt lat="44.81237" lon="3.81681">
        <ele>1046.44</ele>
        <time>2023-09-07T09:42:27Z</time>
      </trkpt>
      <trkpt lat="44.81223" lon="3.81702">
        <ele>1045.44</ele>
        <time>2023-09-07T09:42:43Z</time>
      </trkpt>
      <trkpt lat="44.8121" lon="3.81727">
        <ele>1046.44</ele>
        <time>2023-09-07T09:43:03Z</time>
      </trkpt>
      <trkpt lat="44.81195" lon="3.8175">
        <ele>1045.44</ele>
        <time>2023-09-07T09:43:23Z</time>
      </trkpt>
      <trkpt lat="44.81175" lon="3.81753">
        <ele>1044.44</ele>
        <time>2023-09-07T09:43:43Z</time>
      </trkpt>
      <trkpt lat="44.8116" lon="3.81734">
        <ele>1042.44</ele>
        <time>2023-09-07T09:44:00Z</time>
      </trkpt>
      <trkpt lat="44.81141" lon="3.81736">
        <ele>1042.44</ele>
        <time>2023-09-07T09:44:20Z</time>
      </trkpt>
      <trkpt lat="44.81132" lon="3.81758">
        <ele>1042.44</ele>
        <time>2023-09-07T09:44:36Z</time>
      </trkpt>
      <trkpt lat="44.8112" lon="3.81784">
        <ele>1041.44</ele>
        <time>2023-09-07T09:44:56Z</time>
      </trkpt>
      <trkpt lat="44.8111" lon="3.81808">
        <ele>1039.44</ele>
        <time>2023-09-07T09:45:16Z</time>
      </trkpt>
      <trkpt lat="44.81098" lon="3.81829">
        <ele>1040.44</ele>
        <time>2023-09-07T09:45:32Z</time>
      </trkpt>
      <trkpt lat="44.81087" lon="3.81853">
        <ele>1041.44</ele>
        <time>2023-09-07T09:45:52Z</time>
      </trkpt>
      <trkpt lat="44.81073" lon="3.81877">
        <ele>1039.44</ele>
        <time>2023-09-07T09:46:12Z</time>
      </trkpt>
      <trkpt lat="44.81063" lon="3.81898">
        <ele>1041.44</ele>
        <time>2023-09-07T09:46:28Z</time>
      </trkpt>
      <trkpt lat="44.81053" lon="3.81926">
        <ele>1042.44</ele>
        <time>2023-09-07T09:46:48Z</time>
      </trkpt>
      <trkpt lat="44.81044" lon="3.81949">
        <ele>1040.44</ele>
        <time>2023-09-07T09:47:04Z</time>
      </trkpt>
      <trkpt lat="44.81034" lon="3.81971">
        <ele>1041.44</ele>
        <time>2023-09-07T09:47:20Z</time>
      </trkpt>
      <trkpt lat="44.81022" lon="3.8199">
        <ele>1041.44</ele>
        <time>2023-09-07T09:47:36Z</time>
      </trkpt>
      <trkpt lat="44.81008" lon="3.82009">
        <ele>1039.44</ele>
        <time>2023-09-07T09:48:45Z</time>
      </trkpt>
      <trkpt lat="44.80999" lon="3.82032">
        <ele>1039.44</ele>
        <time>2023-09-07T09:49:05Z</time>
      </trkpt>
      <trkpt lat="44.80988" lon="3.82058">
        <ele>1039.44</ele>
        <time>2023-09-07T09:49:25Z</time>
      </trkpt>
      <trkpt lat="44.80978" lon="3.82084">
        <ele>1039.44</ele>
        <time>2023-09-07T09:49:41Z</time>
      </trkpt>
      <trkpt lat="44.80968" lon="3.82108">
        <ele>1037.44</ele>
        <time>2023-09-07T09:49:57Z</time>
      </trkpt>
      <trkpt lat="44.80959" lon="3.82132">
        <ele>1035.44</ele>
        <time>2023-09-07T09:50:13Z</time>
      </trkpt>
      <trkpt lat="44.80951" lon="3.82156">
        <ele>1034.44</ele>
        <time>2023-09-07T09:50:29Z</time>
      </trkpt>
      <trkpt lat="44.8094" lon="3.82179">
        <ele>1031.44</ele>
        <time>2023-09-07T09:50:45Z</time>
      </trkpt>
      <trkpt lat="44.80931" lon="3.82203">
        <ele>1031.44</ele>
        <time>2023-09-07T09:51:01Z</time>
      </trkpt>
      <trkpt lat="44.80918" lon="3.82228">
        <ele>1028.44</ele>
        <time>2023-09-07T09:51:21Z</time>
      </trkpt>
      <trkpt lat="44.80906" lon="3.82249">
        <ele>1026.44</ele>
        <time>2023-09-07T09:51:37Z</time>
      </trkpt>
      <trkpt lat="44.80905" lon="3.8228">
        <ele>1026.44</ele>
        <time>2023-09-07T09:51:57Z</time>
      </trkpt>
      <trkpt lat="44.80904" lon="3.82306">
        <ele>1023.44</ele>
        <time>2023-09-07T09:52:13Z</time>
      </trkpt>
      <trkpt lat="44.80896" lon="3.8233">
        <ele>1025.44</ele>
        <time>2023-09-07T09:52:29Z</time>
      </trkpt>
      <trkpt lat="44.80876" lon="3.82338">
        <ele>1024.44</ele>
        <time>2023-09-07T09:52:45Z</time>
      </trkpt>
      <trkpt lat="44.80857" lon="3.82341">
        <ele>1024.44</ele>
        <time>2023-09-07T09:53:01Z</time>
      </trkpt>
      <trkpt lat="44.80836" lon="3.82342">
        <ele>1027.44</ele>
        <time>2023-09-07T09:53:17Z</time>
      </trkpt>
      <trkpt lat="44.80816" lon="3.82347">
        <ele>1024.44</ele>
        <time>2023-09-07T09:53:33Z</time>
      </trkpt>
      <trkpt lat="44.80793" lon="3.82349">
        <ele>1023.44</ele>
        <time>2023-09-07T09:53:53Z</time>
      </trkpt>
      <trkpt lat="44.80773" lon="3.82347">
        <ele>1020.44</ele>
        <time>2023-09-07T09:54:09Z</time>
      </trkpt>
      <trkpt lat="44.80754" lon="3.82346">
        <ele>1019.44</ele>
        <time>2023-09-07T09:54:25Z</time>
      </trkpt>
      <trkpt lat="44.80735" lon="3.8235">
        <ele>1017.44</ele>
        <time>2023-09-07T09:54:41Z</time>
      </trkpt>
      <trkpt lat="44.80717" lon="3.82365">
        <ele>1015.44</ele>
        <time>2023-09-07T09:55:01Z</time>
      </trkpt>
      <trkpt lat="44.807" lon="3.82375">
        <ele>1012.44</ele>
        <time>2023-09-07T09:55:17Z</time>
      </trkpt>
      <trkpt lat="44.80688" lon="3.82395">
        <ele>1013.44</ele>
        <time>2023-09-07T09:59:45Z</time>
      </trkpt>
      <trkpt lat="44.80686" lon="3.82424">
        <ele>1011.44</ele>
        <time>2023-09-07T10:00:05Z</time>
      </trkpt>
      <trkpt lat="44.80687" lon="3.82455">
        <ele>1009.44</ele>
        <time>2023-09-07T10:00:25Z</time>
      </trkpt>
      <trkpt lat="44.80684" lon="3.8248">
        <ele>1009.44</ele>
        <time>2023-09-07T10:00:41Z</time>
      </trkpt>
      <trkpt lat="44.80681" lon="3.82505">
        <ele>1007.44</ele>
        <time>2023-09-07T10:01:01Z</time>
      </trkpt>
      <trkpt lat="44.80674" lon="3.82533">
        <ele>1005.44</ele>
        <time>2023-09-07T10:01:21Z</time>
      </trkpt>
      <trkpt lat="44.80673" lon="3.82563">
        <ele>1002.44</ele>
        <time>2023-09-07T10:01:41Z</time>
      </trkpt>
      <trkpt lat="44.80677" lon="3.82593">
        <ele>1000.44</ele>
        <time>2023-09-07T10:02:01Z</time>
      </trkpt>
      <trkpt lat="44.8069" lon="3.82619">
        <ele>1001.44</ele>
        <time>2023-09-07T10:02:30Z</time>
      </trkpt>
      <trkpt lat="44.80707" lon="3.82634">
        <ele>999.44</ele>
        <time>2023-09-07T10:02:46Z</time>
      </trkpt>
      <trkpt lat="44.8072" lon="3.82651">
        <ele>999.44</ele>
        <time>2023-09-07T10:03:02Z</time>
      </trkpt>
      <trkpt lat="44.80734" lon="3.82669">
        <ele>999.44</ele>
        <time>2023-09-07T10:03:18Z</time>
      </trkpt>
      <trkpt lat="44.80741" lon="3.82698">
        <ele>998.44</ele>
        <time>2023-09-07T10:03:34Z</time>
      </trkpt>
      <trkpt lat="44.80745" lon="3.82726">
        <ele>994.44</ele>
        <time>2023-09-07T10:03:50Z</time>
      </trkpt>
      <trkpt lat="44.8075" lon="3.82752">
        <ele>993.44</ele>
        <time>2023-09-07T10:04:06Z</time>
      </trkpt>
      <trkpt lat="44.80746" lon="3.8278">
        <ele>988.44</ele>
        <time>2023-09-07T10:04:26Z</time>
      </trkpt>
      <trkpt lat="44.80733" lon="3.82802">
        <ele>986.44</ele>
        <time>2023-09-07T10:04:42Z</time>
      </trkpt>
      <trkpt lat="44.80749" lon="3.82815">
        <ele>982.44</ele>
        <time>2023-09-07T10:05:10Z</time>
      </trkpt>
      <trkpt lat="44.8073" lon="3.82794">
        <ele>986.44</ele>
        <time>2023-09-07T10:05:38Z</time>
      </trkpt>
      <trkpt lat="44.80712" lon="3.8278">
        <ele>994.44</ele>
        <time>2023-09-07T10:05:54Z</time>
      </trkpt>
      <trkpt lat="44.80694" lon="3.82771">
        <ele>1007.44</ele>
        <time>2023-09-07T10:06:06Z</time>
      </trkpt>
      <trkpt lat="44.80672" lon="3.82758">
        <ele>1011.44</ele>
        <time>2023-09-07T10:06:22Z</time>
      </trkpt>
      <trkpt lat="44.80671" lon="3.82785">
        <ele>995.44</ele>
        <time>2023-09-07T10:06:26Z</time>
      </trkpt>
      <trkpt lat="44.8067" lon="3.82754">
        <ele>991.44</ele>
        <time>2023-09-07T10:06:31Z</time>
      </trkpt>
      <trkpt lat="44.8065" lon="3.8275">
        <ele>979.44</ele>
        <time>2023-09-07T10:06:55Z</time>
      </trkpt>
      <trkpt lat="44.8063" lon="3.82746">
        <ele>979.44</ele>
        <time>2023-09-07T10:07:15Z</time>
      </trkpt>
      <trkpt lat="44.80609" lon="3.82747">
        <ele>981.44</ele>
        <time>2023-09-07T10:07:39Z</time>
      </trkpt>
      <trkpt lat="44.80588" lon="3.8275">
        <ele>986.44</ele>
        <time>2023-09-07T10:07:59Z</time>
      </trkpt>
      <trkpt lat="44.80568" lon="3.82759">
        <ele>992.44</ele>
        <time>2023-09-07T10:08:23Z</time>
      </trkpt>
      <trkpt lat="44.80549" lon="3.82765">
        <ele>994.44</ele>
        <time>2023-09-07T10:08:51Z</time>
      </trkpt>
      <trkpt lat="44.8053" lon="3.82772">
        <ele>999.44</ele>
        <time>2023-09-07T10:09:15Z</time>
      </trkpt>
      <trkpt lat="44.8051" lon="3.82777">
        <ele>1000.44</ele>
        <time>2023-09-07T10:09:39Z</time>
      </trkpt>
      <trkpt lat="44.80491" lon="3.82785">
        <ele>1001.44</ele>
        <time>2023-09-07T10:10:03Z</time>
      </trkpt>
      <trkpt lat="44.80473" lon="3.8279">
        <ele>1005.44</ele>
        <time>2023-09-07T10:10:23Z</time>
      </trkpt>
      <trkpt lat="44.80456" lon="3.82801">
        <ele>1009.44</ele>
        <time>2023-09-07T10:10:43Z</time>
      </trkpt>
      <trkpt lat="44.80438" lon="3.82815">
        <ele>1011.44</ele>
        <time>2023-09-07T10:11:03Z</time>
      </trkpt>
      <trkpt lat="44.80426" lon="3.82835">
        <ele>1011.44</ele>
        <time>2023-09-07T10:11:23Z</time>
      </trkpt>
      <trkpt lat="44.80417" lon="3.82863">
        <ele>1015.44</ele>
        <time>2023-09-07T10:11:47Z</time>
      </trkpt>
      <trkpt lat="44.80403" lon="3.82883">
        <ele>1017.44</ele>
        <time>2023-09-07T10:12:11Z</time>
      </trkpt>
      <trkpt lat="44.80383" lon="3.82898">
        <ele>1017.44</ele>
        <time>2023-09-07T10:12:31Z</time>
      </trkpt>
      <trkpt lat="44.80365" lon="3.82916">
        <ele>1018.44</ele>
        <time>2023-09-07T10:12:55Z</time>
      </trkpt>
      <trkpt lat="44.80352" lon="3.82935">
        <ele>1019.44</ele>
        <time>2023-09-07T10:13:15Z</time>
      </trkpt>
      <trkpt lat="44.80339" lon="3.82954">
        <ele>1019.44</ele>
        <time>2023-09-07T10:13:35Z</time>
      </trkpt>
      <trkpt lat="44.80333" lon="3.82978">
        <ele>1019.44</ele>
        <time>2023-09-07T10:13:55Z</time>
      </trkpt>
      <trkpt lat="44.80331" lon="3.83008">
        <ele>1020.44</ele>
        <time>2023-09-07T10:14:15Z</time>
      </trkpt>
      <trkpt lat="44.80345" lon="3.83028">
        <ele>1024.44</ele>
        <time>2023-09-07T10:14:39Z</time>
      </trkpt>
      <trkpt lat="44.80364" lon="3.83027">
        <ele>1026.44</ele>
        <time>2023-09-07T10:14:59Z</time>
      </trkpt>
      <trkpt lat="44.80384" lon="3.83025">
        <ele>1028.44</ele>
        <time>2023-09-07T10:15:19Z</time>
      </trkpt>
      <trkpt lat="44.80401" lon="3.83018">
        <ele>1026.44</ele>
        <time>2023-09-07T10:15:39Z</time>
      </trkpt>
      <trkpt lat="44.8042" lon="3.83028">
        <ele>1031.44</ele>
        <time>2023-09-07T10:19:47Z</time>
      </trkpt>
      <trkpt lat="44.80439" lon="3.83032">
        <ele>1031.44</ele>
        <time>2023-09-07T10:20:07Z</time>
      </trkpt>
      <trkpt lat="44.8046" lon="3.83035">
        <ele>1032.44</ele>
        <time>2023-09-07T10:20:27Z</time>
      </trkpt>
      <trkpt lat="44.8048" lon="3.83039">
        <ele>1032.44</ele>
        <time>2023-09-07T10:20:47Z</time>
      </trkpt>
      <trkpt lat="44.80501" lon="3.83042">
        <ele>1033.44</ele>
        <time>2023-09-07T10:21:07Z</time>
      </trkpt>
      <trkpt lat="44.8052" lon="3.83048">
        <ele>1034.44</ele>
        <time>2023-09-07T10:21:27Z</time>
      </trkpt>
      <trkpt lat="44.80539" lon="3.83057">
        <ele>1034.44</ele>
        <time>2023-09-07T10:21:47Z</time>
      </trkpt>
      <trkpt lat="44.80556" lon="3.83064">
        <ele>1035.44</ele>
        <time>2023-09-07T10:22:03Z</time>
      </trkpt>
      <trkpt lat="44.80575" lon="3.83069">
        <ele>1036.44</ele>
        <time>2023-09-07T10:22:19Z</time>
      </trkpt>
      <trkpt lat="44.80593" lon="3.8308">
        <ele>1037.44</ele>
        <time>2023-09-07T10:22:39Z</time>
      </trkpt>
      <trkpt lat="44.80614" lon="3.83087">
        <ele>1038.44</ele>
        <time>2023-09-07T10:22:59Z</time>
      </trkpt>
      <trkpt lat="44.80633" lon="3.83088">
        <ele>1038.44</ele>
        <time>2023-09-07T10:23:15Z</time>
      </trkpt>
      <trkpt lat="44.80654" lon="3.83087">
        <ele>1040.44</ele>
        <time>2023-09-07T10:23:35Z</time>
      </trkpt>
      <trkpt lat="44.80669" lon="3.83104">
        <ele>1040.44</ele>
        <time>2023-09-07T10:23:55Z</time>
      </trkpt>
      <trkpt lat="44.80663" lon="3.8313">
        <ele>1043.44</ele>
        <time>2023-09-07T10:25:08Z</time>
      </trkpt>
      <trkpt lat="44.80659" lon="3.83157">
        <ele>1046.44</ele>
        <time>2023-09-07T10:25:32Z</time>
      </trkpt>
      <trkpt lat="44.80652" lon="3.83185">
        <ele>1049.44</ele>
        <time>2023-09-07T10:25:56Z</time>
      </trkpt>
      <trkpt lat="44.8065" lon="3.83211">
        <ele>1053.44</ele>
        <time>2023-09-07T10:26:20Z</time>
      </trkpt>
      <trkpt lat="44.80643" lon="3.83239">
        <ele>1059.44</ele>
        <time>2023-09-07T10:26:48Z</time>
      </trkpt>
      <trkpt lat="44.80634" lon="3.83266">
        <ele>1062.44</ele>
        <time>2023-09-07T10:27:12Z</time>
      </trkpt>
      <trkpt lat="44.80628" lon="3.83293">
        <ele>1066.44</ele>
        <time>2023-09-07T10:27:36Z</time>
      </trkpt>
      <trkpt lat="44.80622" lon="3.8332">
        <ele>1071.44</ele>
        <time>2023-09-07T10:27:56Z</time>
      </trkpt>
      <trkpt lat="44.80615" lon="3.83345">
        <ele>1072.44</ele>
        <time>2023-09-07T10:28:16Z</time>
      </trkpt>
      <trkpt lat="44.80603" lon="3.8337">
        <ele>1075.44</ele>
        <time>2023-09-07T10:28:36Z</time>
      </trkpt>
      <trkpt lat="44.8059" lon="3.83392">
        <ele>1079.44</ele>
        <time>2023-09-07T10:28:56Z</time>
      </trkpt>
      <trkpt lat="44.80574" lon="3.83412">
        <ele>1083.44</ele>
        <time>2023-09-07T10:29:16Z</time>
      </trkpt>
      <trkpt lat="44.80561" lon="3.83436">
        <ele>1085.44</ele>
        <time>2023-09-07T10:29:36Z</time>
      </trkpt>
      <trkpt lat="44.80547" lon="3.83456">
        <ele>1087.44</ele>
        <time>2023-09-07T10:29:56Z</time>
      </trkpt>
      <trkpt lat="44.80533" lon="3.83477">
        <ele>1089.44</ele>
        <time>2023-09-07T10:30:16Z</time>
      </trkpt>
      <trkpt lat="44.8052" lon="3.835">
        <ele>1090.44</ele>
        <time>2023-09-07T10:30:36Z</time>
      </trkpt>
      <trkpt lat="44.80507" lon="3.83523">
        <ele>1092.44</ele>
        <time>2023-09-07T10:30:56Z</time>
      </trkpt>
      <trkpt lat="44.80494" lon="3.83541">
        <ele>1094.44</ele>
        <time>2023-09-07T10:31:16Z</time>
      </trkpt>
      <trkpt lat="44.80479" lon="3.83561">
        <ele>1093.44</ele>
        <time>2023-09-07T10:31:36Z</time>
      </trkpt>
      <trkpt lat="44.80467" lon="3.83584">
        <ele>1095.44</ele>
        <time>2023-09-07T10:31:56Z</time>
      </trkpt>
      <trkpt lat="44.80454" lon="3.83603">
        <ele>1098.44</ele>
        <time>2023-09-07T10:32:16Z</time>
      </trkpt>
      <trkpt lat="44.80433" lon="3.83598">
        <ele>1096.44</ele>
        <time>2023-09-07T10:32:40Z</time>
      </trkpt>
      <trkpt lat="44.80451" lon="3.83604">
        <ele>1095.44</ele>
        <time>2023-09-07T10:33:00Z</time>
      </trkpt>
      <trkpt lat="44.80443" lon="3.8363">
        <ele>1100.44</ele>
        <time>2023-09-07T10:33:24Z</time>
      </trkpt>
      <trkpt lat="44.80432" lon="3.8365">
        <ele>1102.44</ele>
        <time>2023-09-07T10:33:44Z</time>
      </trkpt>
      <trkpt lat="44.80453" lon="3.83652">
        <ele>1104.44</ele>
        <time>2023-09-07T10:35:40Z</time>
      </trkpt>
      <trkpt lat="44.80461" lon="3.83641">
        <ele>1106.44</ele>
        <time>2023-09-07T11:44:02Z</time>
      </trkpt>
      <trkpt lat="44.80441" lon="3.83652">
        <ele>1105.44</ele>
        <time>2023-09-07T11:44:22Z</time>
      </trkpt>
      <trkpt lat="44.80422" lon="3.83664">
        <ele>1104.44</ele>
        <time>2023-09-07T11:45:07Z</time>
      </trkpt>
      <trkpt lat="44.80407" lon="3.8368">
        <ele>1104.44</ele>
        <time>2023-09-07T11:45:23Z</time>
      </trkpt>
      <trkpt lat="44.80396" lon="3.83707">
        <ele>1105.44</ele>
        <time>2023-09-07T11:45:43Z</time>
      </trkpt>
      <trkpt lat="44.80387" lon="3.83734">
        <ele>1104.44</ele>
        <time>2023-09-07T11:46:03Z</time>
      </trkpt>
      <trkpt lat="44.80378" lon="3.83761">
        <ele>1106.44</ele>
        <time>2023-09-07T11:46:23Z</time>
      </trkpt>
      <trkpt lat="44.80374" lon="3.83786">
        <ele>1106.44</ele>
        <time>2023-09-07T11:46:39Z</time>
      </trkpt>
      <trkpt lat="44.80368" lon="3.83814">
        <ele>1107.44</ele>
        <time>2023-09-07T11:46:59Z</time>
      </trkpt>
      <trkpt lat="44.80355" lon="3.83836">
        <ele>1110.44</ele>
        <time>2023-09-07T11:47:19Z</time>
      </trkpt>
      <trkpt lat="44.80346" lon="3.83858">
        <ele>1112.44</ele>
        <time>2023-09-07T11:47:39Z</time>
      </trkpt>
      <trkpt lat="44.80338" lon="3.83882">
        <ele>1113.44</ele>
        <time>2023-09-07T11:47:59Z</time>
      </trkpt>
      <trkpt lat="44.80328" lon="3.83906">
        <ele>1115.44</ele>
        <time>2023-09-07T11:48:39Z</time>
      </trkpt>
      <trkpt lat="44.80318" lon="3.83927">
        <ele>1117.44</ele>
        <time>2023-09-07T11:48:59Z</time>
      </trkpt>
      <trkpt lat="44.80306" lon="3.83953">
        <ele>1119.44</ele>
        <time>2023-09-07T11:49:19Z</time>
      </trkpt>
      <trkpt lat="44.80293" lon="3.83978">
        <ele>1120.44</ele>
        <time>2023-09-07T11:49:39Z</time>
      </trkpt>
      <trkpt lat="44.80282" lon="3.84001">
        <ele>1124.44</ele>
        <time>2023-09-07T11:50:23Z</time>
      </trkpt>
      <trkpt lat="44.80274" lon="3.84024">
        <ele>1123.44</ele>
        <time>2023-09-07T11:50:43Z</time>
      </trkpt>
      <trkpt lat="44.80263" lon="3.84048">
        <ele>1124.44</ele>
        <time>2023-09-07T11:51:03Z</time>
      </trkpt>
      <trkpt lat="44.80252" lon="3.84072">
        <ele>1125.44</ele>
        <time>2023-09-07T11:51:23Z</time>
      </trkpt>
      <trkpt lat="44.80242" lon="3.84098">
        <ele>1125.44</ele>
        <time>2023-09-07T11:51:43Z</time>
      </trkpt>
      <trkpt lat="44.80234" lon="3.84126">
        <ele>1128.44</ele>
        <time>2023-09-07T11:52:55Z</time>
      </trkpt>
      <trkpt lat="44.80225" lon="3.84152">
        <ele>1128.44</ele>
        <time>2023-09-07T11:53:15Z</time>
      </trkpt>
      <trkpt lat="44.80218" lon="3.84178">
        <ele>1132.44</ele>
        <time>2023-09-07T11:53:35Z</time>
      </trkpt>
      <trkpt lat="44.80213" lon="3.84206">
        <ele>1134.44</ele>
        <time>2023-09-07T11:54:00Z</time>
      </trkpt>
      <trkpt lat="44.80209" lon="3.84236">
        <ele>1137.44</ele>
        <time>2023-09-07T11:54:24Z</time>
      </trkpt>
      <trkpt lat="44.80203" lon="3.84264">
        <ele>1138.44</ele>
        <time>2023-09-07T11:54:44Z</time>
      </trkpt>
      <trkpt lat="44.802" lon="3.84289">
        <ele>1140.44</ele>
        <time>2023-09-07T11:55:04Z</time>
      </trkpt>
      <trkpt lat="44.80193" lon="3.84318">
        <ele>1144.44</ele>
        <time>2023-09-07T11:55:28Z</time>
      </trkpt>
      <trkpt lat="44.80181" lon="3.84343">
        <ele>1146.44</ele>
        <time>2023-09-07T11:55:48Z</time>
      </trkpt>
      <trkpt lat="44.80167" lon="3.84366">
        <ele>1145.44</ele>
        <time>2023-09-07T11:56:08Z</time>
      </trkpt>
      <trkpt lat="44.80158" lon="3.84389">
        <ele>1149.44</ele>
        <time>2023-09-07T11:56:28Z</time>
      </trkpt>
      <trkpt lat="44.80149" lon="3.84412">
        <ele>1151.44</ele>
        <time>2023-09-07T11:56:48Z</time>
      </trkpt>
      <trkpt lat="44.8014" lon="3.84437">
        <ele>1152.44</ele>
        <time>2023-09-07T11:57:08Z</time>
      </trkpt>
      <trkpt lat="44.80133" lon="3.84461">
        <ele>1153.44</ele>
        <time>2023-09-07T11:57:28Z</time>
      </trkpt>
      <trkpt lat="44.80125" lon="3.8449">
        <ele>1155.44</ele>
        <time>2023-09-07T11:57:52Z</time>
      </trkpt>
      <trkpt lat="44.80115" lon="3.84516">
        <ele>1154.44</ele>
        <time>2023-09-07T11:58:12Z</time>
      </trkpt>
      <trkpt lat="44.80106" lon="3.84542">
        <ele>1154.44</ele>
        <time>2023-09-07T11:58:32Z</time>
      </trkpt>
      <trkpt lat="44.80098" lon="3.8457">
        <ele>1156.44</ele>
        <time>2023-09-07T11:58:52Z</time>
      </trkpt>
      <trkpt lat="44.80093" lon="3.846">
        <ele>1157.44</ele>
        <time>2023-09-07T11:59:12Z</time>
      </trkpt>
      <trkpt lat="44.80089" lon="3.8463">
        <ele>1156.44</ele>
        <time>2023-09-07T11:59:32Z</time>
      </trkpt>
      <trkpt lat="44.80082" lon="3.84657">
        <ele>1155.44</ele>
        <time>2023-09-07T11:59:52Z</time>
      </trkpt>
      <trkpt lat="44.80069" lon="3.84681">
        <ele>1156.44</ele>
        <time>2023-09-07T12:00:12Z</time>
      </trkpt>
      <trkpt lat="44.80064" lon="3.8471">
        <ele>1155.44</ele>
        <time>2023-09-07T12:00:32Z</time>
      </trkpt>
      <trkpt lat="44.80065" lon="3.84742">
        <ele>1154.44</ele>
        <time>2023-09-07T12:00:52Z</time>
      </trkpt>
      <trkpt lat="44.80064" lon="3.84774">
        <ele>1152.44</ele>
        <time>2023-09-07T12:01:12Z</time>
      </trkpt>
      <trkpt lat="44.80065" lon="3.84805">
        <ele>1150.44</ele>
        <time>2023-09-07T12:01:32Z</time>
      </trkpt>
      <trkpt lat="44.80068" lon="3.84832">
        <ele>1149.44</ele>
        <time>2023-09-07T12:01:52Z</time>
      </trkpt>
      <trkpt lat="44.80073" lon="3.8486">
        <ele>1148.44</ele>
        <time>2023-09-07T12:02:12Z</time>
      </trkpt>
      <trkpt lat="44.80074" lon="3.84886">
        <ele>1146.44</ele>
        <time>2023-09-07T12:02:44Z</time>
      </trkpt>
      <trkpt lat="44.80077" lon="3.84912">
        <ele>1144.44</ele>
        <time>2023-09-07T12:03:00Z</time>
      </trkpt>
      <trkpt lat="44.80078" lon="3.84942">
        <ele>1144.44</ele>
        <time>2023-09-07T12:03:20Z</time>
      </trkpt>
      <trkpt lat="44.80078" lon="3.84969">
        <ele>1143.44</ele>
        <time>2023-09-07T12:03:36Z</time>
      </trkpt>
      <trkpt lat="44.80079" lon="3.84994">
        <ele>1143.44</ele>
        <time>2023-09-07T12:03:52Z</time>
      </trkpt>
      <trkpt lat="44.80075" lon="3.85022">
        <ele>1141.44</ele>
        <time>2023-09-07T12:04:48Z</time>
      </trkpt>
      <trkpt lat="44.80072" lon="3.85051">
        <ele>1144.44</ele>
        <time>2023-09-07T12:05:08Z</time>
      </trkpt>
      <trkpt lat="44.8007" lon="3.8508">
        <ele>1143.44</ele>
        <time>2023-09-07T12:05:40Z</time>
      </trkpt>
      <trkpt lat="44.80061" lon="3.85104">
        <ele>1143.44</ele>
        <time>2023-09-07T12:06:00Z</time>
      </trkpt>
      <trkpt lat="44.80047" lon="3.85124">
        <ele>1144.44</ele>
        <time>2023-09-07T12:06:24Z</time>
      </trkpt>
      <trkpt lat="44.80033" lon="3.85142">
        <ele>1144.44</ele>
        <time>2023-09-07T12:06:48Z</time>
      </trkpt>
      <trkpt lat="44.80018" lon="3.85159">
        <ele>1145.44</ele>
        <time>2023-09-07T12:07:09Z</time>
      </trkpt>
      <trkpt lat="44.80001" lon="3.85175">
        <ele>1147.44</ele>
        <time>2023-09-07T12:07:29Z</time>
      </trkpt>
      <trkpt lat="44.79987" lon="3.85195">
        <ele>1146.44</ele>
        <time>2023-09-07T12:07:45Z</time>
      </trkpt>
      <trkpt lat="44.79973" lon="3.85213">
        <ele>1148.44</ele>
        <time>2023-09-07T12:08:01Z</time>
      </trkpt>
      <trkpt lat="44.7996" lon="3.85232">
        <ele>1149.44</ele>
        <time>2023-09-07T12:08:17Z</time>
      </trkpt>
      <trkpt lat="44.79948" lon="3.85251">
        <ele>1148.44</ele>
        <time>2023-09-07T12:08:33Z</time>
      </trkpt>
      <trkpt lat="44.79932" lon="3.85273">
        <ele>1147.44</ele>
        <time>2023-09-07T12:08:53Z</time>
      </trkpt>
      <trkpt lat="44.79916" lon="3.85294">
        <ele>1147.44</ele>
        <time>2023-09-07T12:09:13Z</time>
      </trkpt>
      <trkpt lat="44.79899" lon="3.85314">
        <ele>1147.44</ele>
        <time>2023-09-07T12:09:33Z</time>
      </trkpt>
      <trkpt lat="44.79882" lon="3.85324">
        <ele>1146.44</ele>
        <time>2023-09-07T12:09:49Z</time>
      </trkpt>
      <trkpt lat="44.79864" lon="3.85343">
        <ele>1147.44</ele>
        <time>2023-09-07T12:10:09Z</time>
      </trkpt>
      <trkpt lat="44.79845" lon="3.8536">
        <ele>1149.44</ele>
        <time>2023-09-07T12:10:25Z</time>
      </trkpt>
      <trkpt lat="44.7983" lon="3.85375">
        <ele>1149.44</ele>
        <time>2023-09-07T12:10:41Z</time>
      </trkpt>
      <trkpt lat="44.79814" lon="3.8539">
        <ele>1149.44</ele>
        <time>2023-09-07T12:10:57Z</time>
      </trkpt>
      <trkpt lat="44.79798" lon="3.85405">
        <ele>1151.44</ele>
        <time>2023-09-07T12:11:13Z</time>
      </trkpt>
      <trkpt lat="44.79781" lon="3.85421">
        <ele>1151.44</ele>
        <time>2023-09-07T12:13:13Z</time>
      </trkpt>
      <trkpt lat="44.79763" lon="3.85435">
        <ele>1151.44</ele>
        <time>2023-09-07T12:13:49Z</time>
      </trkpt>
      <trkpt lat="44.79747" lon="3.85453">
        <ele>1153.44</ele>
        <time>2023-09-07T12:14:13Z</time>
      </trkpt>
      <trkpt lat="44.79733" lon="3.85471">
        <ele>1154.44</ele>
        <time>2023-09-07T12:14:37Z</time>
      </trkpt>
      <trkpt lat="44.79723" lon="3.85495">
        <ele>1155.44</ele>
        <time>2023-09-07T12:15:51Z</time>
      </trkpt>
      <trkpt lat="44.79708" lon="3.85516">
        <ele>1156.44</ele>
        <time>2023-09-07T12:16:08Z</time>
      </trkpt>
      <trkpt lat="44.79689" lon="3.85531">
        <ele>1155.44</ele>
        <time>2023-09-07T12:16:28Z</time>
      </trkpt>
      <trkpt lat="44.79669" lon="3.85542">
        <ele>1156.44</ele>
        <time>2023-09-07T12:16:48Z</time>
      </trkpt>
      <trkpt lat="44.79651" lon="3.85551">
        <ele>1157.44</ele>
        <time>2023-09-07T12:17:04Z</time>
      </trkpt>
      <trkpt lat="44.79633" lon="3.85563">
        <ele>1158.44</ele>
        <time>2023-09-07T12:17:20Z</time>
      </trkpt>
      <trkpt lat="44.79617" lon="3.85577">
        <ele>1159.44</ele>
        <time>2023-09-07T12:17:36Z</time>
      </trkpt>
      <trkpt lat="44.796" lon="3.8559">
        <ele>1159.44</ele>
        <time>2023-09-07T12:17:52Z</time>
      </trkpt>
      <trkpt lat="44.79582" lon="3.85604">
        <ele>1159.44</ele>
        <time>2023-09-07T12:18:12Z</time>
      </trkpt>
      <trkpt lat="44.79562" lon="3.8562">
        <ele>1159.44</ele>
        <time>2023-09-07T12:18:48Z</time>
      </trkpt>
      <trkpt lat="44.79545" lon="3.85633">
        <ele>1158.44</ele>
        <time>2023-09-07T12:19:04Z</time>
      </trkpt>
      <trkpt lat="44.79528" lon="3.85647">
        <ele>1157.44</ele>
        <time>2023-09-07T12:19:28Z</time>
      </trkpt>
      <trkpt lat="44.7951" lon="3.8566">
        <ele>1157.44</ele>
        <time>2023-09-07T12:19:44Z</time>
      </trkpt>
      <trkpt lat="44.79495" lon="3.85676">
        <ele>1158.44</ele>
        <time>2023-09-07T12:20:00Z</time>
      </trkpt>
      <trkpt lat="44.7948" lon="3.85696">
        <ele>1158.44</ele>
        <time>2023-09-07T12:20:20Z</time>
      </trkpt>
      <trkpt lat="44.79469" lon="3.85717">
        <ele>1157.44</ele>
        <time>2023-09-07T12:20:36Z</time>
      </trkpt>
      <trkpt lat="44.79456" lon="3.85737">
        <ele>1157.44</ele>
        <time>2023-09-07T12:20:52Z</time>
      </trkpt>
      <trkpt lat="44.79443" lon="3.85758">
        <ele>1157.44</ele>
        <time>2023-09-07T12:21:08Z</time>
      </trkpt>
      <trkpt lat="44.7943" lon="3.85784">
        <ele>1156.44</ele>
        <time>2023-09-07T12:21:28Z</time>
      </trkpt>
      <trkpt lat="44.79419" lon="3.85804">
        <ele>1156.44</ele>
        <time>2023-09-07T12:21:44Z</time>
      </trkpt>
      <trkpt lat="44.79405" lon="3.85823">
        <ele>1155.44</ele>
        <time>2023-09-07T12:22:00Z</time>
      </trkpt>
      <trkpt lat="44.79388" lon="3.85842">
        <ele>1156.44</ele>
        <time>2023-09-07T12:22:20Z</time>
      </trkpt>
      <trkpt lat="44.79373" lon="3.85861">
        <ele>1156.44</ele>
        <time>2023-09-07T12:22:36Z</time>
      </trkpt>
      <trkpt lat="44.79355" lon="3.85869">
        <ele>1159.44</ele>
        <time>2023-09-07T12:22:56Z</time>
      </trkpt>
      <trkpt lat="44.79334" lon="3.8587">
        <ele>1160.44</ele>
        <time>2023-09-07T12:23:12Z</time>
      </trkpt>
      <trkpt lat="44.79316" lon="3.85877">
        <ele>1161.44</ele>
        <time>2023-09-07T12:23:28Z</time>
      </trkpt>
      <trkpt lat="44.79297" lon="3.85883">
        <ele>1161.44</ele>
        <time>2023-09-07T12:23:44Z</time>
      </trkpt>
      <trkpt lat="44.79275" lon="3.85889">
        <ele>1162.44</ele>
        <time>2023-09-07T12:24:04Z</time>
      </trkpt>
      <trkpt lat="44.79256" lon="3.85888">
        <ele>1161.44</ele>
        <time>2023-09-07T12:24:20Z</time>
      </trkpt>
      <trkpt lat="44.79237" lon="3.85881">
        <ele>1160.44</ele>
        <time>2023-09-07T12:24:36Z</time>
      </trkpt>
      <trkpt lat="44.79218" lon="3.85877">
        <ele>1160.44</ele>
        <time>2023-09-07T12:24:52Z</time>
      </trkpt>
      <trkpt lat="44.792" lon="3.85874">
        <ele>1162.44</ele>
        <time>2023-09-07T12:25:08Z</time>
      </trkpt>
      <trkpt lat="44.79177" lon="3.85876">
        <ele>1163.44</ele>
        <time>2023-09-07T12:25:28Z</time>
      </trkpt>
      <trkpt lat="44.79158" lon="3.85878">
        <ele>1162.44</ele>
        <time>2023-09-07T12:25:44Z</time>
      </trkpt>
      <trkpt lat="44.79139" lon="3.85884">
        <ele>1162.44</ele>
        <time>2023-09-07T12:26:00Z</time>
      </trkpt>
      <trkpt lat="44.7912" lon="3.85895">
        <ele>1162.44</ele>
        <time>2023-09-07T12:26:16Z</time>
      </trkpt>
      <trkpt lat="44.79102" lon="3.85904">
        <ele>1161.44</ele>
        <time>2023-09-07T12:26:32Z</time>
      </trkpt>
      <trkpt lat="44.79079" lon="3.85907">
        <ele>1163.44</ele>
        <time>2023-09-07T12:26:52Z</time>
      </trkpt>
      <trkpt lat="44.7906" lon="3.8591">
        <ele>1164.44</ele>
        <time>2023-09-07T12:27:08Z</time>
      </trkpt>
      <trkpt lat="44.7904" lon="3.85917">
        <ele>1167.44</ele>
        <time>2023-09-07T12:27:24Z</time>
      </trkpt>
      <trkpt lat="44.79024" lon="3.8593">
        <ele>1166.44</ele>
        <time>2023-09-07T12:27:40Z</time>
      </trkpt>
      <trkpt lat="44.79004" lon="3.85941">
        <ele>1162.44</ele>
        <time>2023-09-07T12:28:44Z</time>
      </trkpt>
      <trkpt lat="44.78985" lon="3.85954">
        <ele>1163.44</ele>
        <time>2023-09-07T12:29:00Z</time>
      </trkpt>
      <trkpt lat="44.78967" lon="3.85973">
        <ele>1162.44</ele>
        <time>2023-09-07T12:29:20Z</time>
      </trkpt>
      <trkpt lat="44.78961" lon="3.85997">
        <ele>1162.44</ele>
        <time>2023-09-07T12:29:36Z</time>
      </trkpt>
      <trkpt lat="44.78963" lon="3.86025">
        <ele>1161.44</ele>
        <time>2023-09-07T12:29:52Z</time>
      </trkpt>
      <trkpt lat="44.78962" lon="3.86057">
        <ele>1159.44</ele>
        <time>2023-09-07T12:30:12Z</time>
      </trkpt>
      <trkpt lat="44.78953" lon="3.86085">
        <ele>1155.44</ele>
        <time>2023-09-07T12:30:32Z</time>
      </trkpt>
      <trkpt lat="44.78939" lon="3.86102">
        <ele>1154.44</ele>
        <time>2023-09-07T12:30:48Z</time>
      </trkpt>
      <trkpt lat="44.78921" lon="3.86094">
        <ele>1155.44</ele>
        <time>2023-09-07T12:31:09Z</time>
      </trkpt>
      <trkpt lat="44.78904" lon="3.86074">
        <ele>1155.44</ele>
        <time>2023-09-07T12:31:33Z</time>
      </trkpt>
      <trkpt lat="44.78885" lon="3.8606">
        <ele>1155.44</ele>
        <time>2023-09-07T12:31:53Z</time>
      </trkpt>
      <trkpt lat="44.78868" lon="3.86047">
        <ele>1156.44</ele>
        <time>2023-09-07T12:32:41Z</time>
      </trkpt>
      <trkpt lat="44.78852" lon="3.86064">
        <ele>1159.44</ele>
        <time>2023-09-07T12:33:01Z</time>
      </trkpt>
      <trkpt lat="44.78836" lon="3.86082">
        <ele>1162.44</ele>
        <time>2023-09-07T12:33:25Z</time>
      </trkpt>
      <trkpt lat="44.78819" lon="3.86096">
        <ele>1166.44</ele>
        <time>2023-09-07T12:33:57Z</time>
      </trkpt>
      <trkpt lat="44.78802" lon="3.8611">
        <ele>1170.44</ele>
        <time>2023-09-07T12:34:37Z</time>
      </trkpt>
      <trkpt lat="44.78782" lon="3.86122">
        <ele>1174.44</ele>
        <time>2023-09-07T12:35:05Z</time>
      </trkpt>
      <trkpt lat="44.78763" lon="3.86129">
        <ele>1177.44</ele>
        <time>2023-09-07T12:35:45Z</time>
      </trkpt>
      <trkpt lat="44.78744" lon="3.86143">
        <ele>1178.44</ele>
        <time>2023-09-07T12:36:13Z</time>
      </trkpt>
      <trkpt lat="44.78726" lon="3.86159">
        <ele>1180.44</ele>
        <time>2023-09-07T12:36:33Z</time>
      </trkpt>
      <trkpt lat="44.78712" lon="3.86182">
        <ele>1181.44</ele>
        <time>2023-09-07T12:36:53Z</time>
      </trkpt>
      <trkpt lat="44.78702" lon="3.86206">
        <ele>1184.44</ele>
        <time>2023-09-07T12:37:17Z</time>
      </trkpt>
      <trkpt lat="44.78693" lon="3.86232">
        <ele>1186.44</ele>
        <time>2023-09-07T12:37:41Z</time>
      </trkpt>
      <trkpt lat="44.78683" lon="3.86258">
        <ele>1187.44</ele>
        <time>2023-09-07T12:38:01Z</time>
      </trkpt>
      <trkpt lat="44.78671" lon="3.86284">
        <ele>1189.44</ele>
        <time>2023-09-07T12:38:21Z</time>
      </trkpt>
      <trkpt lat="44.78662" lon="3.86309">
        <ele>1190.44</ele>
        <time>2023-09-07T12:38:42Z</time>
      </trkpt>
      <trkpt lat="44.7865" lon="3.86334">
        <ele>1193.44</ele>
        <time>2023-09-07T12:39:02Z</time>
      </trkpt>
      <trkpt lat="44.7864" lon="3.86356">
        <ele>1194.44</ele>
        <time>2023-09-07T12:39:18Z</time>
      </trkpt>
      <trkpt lat="44.7863" lon="3.86378">
        <ele>1195.44</ele>
        <time>2023-09-07T12:39:34Z</time>
      </trkpt>
      <trkpt lat="44.7862" lon="3.86405">
        <ele>1197.44</ele>
        <time>2023-09-07T12:39:55Z</time>
      </trkpt>
      <trkpt lat="44.7861" lon="3.86428">
        <ele>1198.44</ele>
        <time>2023-09-07T12:40:11Z</time>
      </trkpt>
      <trkpt lat="44.78595" lon="3.86451">
        <ele>1202.44</ele>
        <time>2023-09-07T12:40:31Z</time>
      </trkpt>
      <trkpt lat="44.78584" lon="3.86477">
        <ele>1205.44</ele>
        <time>2023-09-07T12:40:51Z</time>
      </trkpt>
      <trkpt lat="44.78572" lon="3.86498">
        <ele>1206.44</ele>
        <time>2023-09-07T12:41:07Z</time>
      </trkpt>
      <trkpt lat="44.7856" lon="3.8652">
        <ele>1208.44</ele>
        <time>2023-09-07T12:41:23Z</time>
      </trkpt>
      <trkpt lat="44.78549" lon="3.86543">
        <ele>1209.44</ele>
        <time>2023-09-07T12:41:39Z</time>
      </trkpt>
      <trkpt lat="44.78545" lon="3.86569">
        <ele>1210.44</ele>
        <time>2023-09-07T12:41:55Z</time>
      </trkpt>
      <trkpt lat="44.78533" lon="3.86592">
        <ele>1211.44</ele>
        <time>2023-09-07T12:42:11Z</time>
      </trkpt>
      <trkpt lat="44.78518" lon="3.86608">
        <ele>1213.44</ele>
        <time>2023-09-07T12:42:27Z</time>
      </trkpt>
      <trkpt lat="44.78503" lon="3.86627">
        <ele>1214.44</ele>
        <time>2023-09-07T12:42:43Z</time>
      </trkpt>
      <trkpt lat="44.78488" lon="3.86645">
        <ele>1214.44</ele>
        <time>2023-09-07T12:42:59Z</time>
      </trkpt>
      <trkpt lat="44.78473" lon="3.86664">
        <ele>1214.44</ele>
        <time>2023-09-07T12:43:15Z</time>
      </trkpt>
      <trkpt lat="44.78458" lon="3.86682">
        <ele>1214.44</ele>
        <time>2023-09-07T12:43:31Z</time>
      </trkpt>
      <trkpt lat="44.78443" lon="3.86702">
        <ele>1214.44</ele>
        <time>2023-09-07T12:43:47Z</time>
      </trkpt>
      <trkpt lat="44.78429" lon="3.8672">
        <ele>1215.44</ele>
        <time>2023-09-07T12:44:03Z</time>
      </trkpt>
      <trkpt lat="44.78414" lon="3.86738">
        <ele>1215.44</ele>
        <time>2023-09-07T12:44:19Z</time>
      </trkpt>
      <trkpt lat="44.784" lon="3.86758">
        <ele>1217.44</ele>
        <time>2023-09-07T12:44:35Z</time>
      </trkpt>
      <trkpt lat="44.78387" lon="3.86778">
        <ele>1218.44</ele>
        <time>2023-09-07T12:44:51Z</time>
      </trkpt>
      <trkpt lat="44.78375" lon="3.868">
        <ele>1219.44</ele>
        <time>2023-09-07T12:45:07Z</time>
      </trkpt>
      <trkpt lat="44.78366" lon="3.86823">
        <ele>1219.44</ele>
        <time>2023-09-07T12:45:23Z</time>
      </trkpt>
      <trkpt lat="44.78356" lon="3.86846">
        <ele>1221.44</ele>
        <time>2023-09-07T12:45:39Z</time>
      </trkpt>
      <trkpt lat="44.78344" lon="3.86871">
        <ele>1220.44</ele>
        <time>2023-09-07T12:45:59Z</time>
      </trkpt>
      <trkpt lat="44.78333" lon="3.86896">
        <ele>1222.44</ele>
        <time>2023-09-07T12:46:19Z</time>
      </trkpt>
      <trkpt lat="44.78322" lon="3.86922">
        <ele>1224.44</ele>
        <time>2023-09-07T13:04:55Z</time>
      </trkpt>
      <trkpt lat="44.7831" lon="3.86941">
        <ele>1225.44</ele>
        <time>2023-09-07T13:05:15Z</time>
      </trkpt>
      <trkpt lat="44.78297" lon="3.86967">
        <ele>1227.44</ele>
        <time>2023-09-07T13:05:35Z</time>
      </trkpt>
      <trkpt lat="44.78284" lon="3.86987">
        <ele>1228.44</ele>
        <time>2023-09-07T13:05:51Z</time>
      </trkpt>
      <trkpt lat="44.78273" lon="3.8701">
        <ele>1231.44</ele>
        <time>2023-09-07T13:06:07Z</time>
      </trkpt>
      <trkpt lat="44.78261" lon="3.87036">
        <ele>1229.44</ele>
        <time>2023-09-07T13:06:27Z</time>
      </trkpt>
      <trkpt lat="44.78252" lon="3.87065">
        <ele>1225.44</ele>
        <time>2023-09-07T13:06:47Z</time>
      </trkpt>
      <trkpt lat="44.78247" lon="3.87091">
        <ele>1226.44</ele>
        <time>2023-09-07T13:07:03Z</time>
      </trkpt>
      <trkpt lat="44.78245" lon="3.87121">
        <ele>1226.44</ele>
        <time>2023-09-07T13:07:23Z</time>
      </trkpt>
      <trkpt lat="44.78253" lon="3.87143">
        <ele>1226.44</ele>
        <time>2023-09-07T13:07:39Z</time>
      </trkpt>
      <trkpt lat="44.78263" lon="3.87166">
        <ele>1226.44</ele>
        <time>2023-09-07T13:07:55Z</time>
      </trkpt>
      <trkpt lat="44.78274" lon="3.87188">
        <ele>1225.44</ele>
        <time>2023-09-07T13:08:11Z</time>
      </trkpt>
      <trkpt lat="44.78284" lon="3.8721">
        <ele>1225.44</ele>
        <time>2023-09-07T13:08:27Z</time>
      </trkpt>
      <trkpt lat="44.78297" lon="3.87235">
        <ele>1225.44</ele>
        <time>2023-09-07T13:08:47Z</time>
      </trkpt>
      <trkpt lat="44.78305" lon="3.87257">
        <ele>1228.44</ele>
        <time>2023-09-07T13:09:07Z</time>
      </trkpt>
      <trkpt lat="44.78306" lon="3.87286">
        <ele>1227.44</ele>
        <time>2023-09-07T13:10:07Z</time>
      </trkpt>
      <trkpt lat="44.78304" lon="3.87312">
        <ele>1224.44</ele>
        <time>2023-09-07T13:10:23Z</time>
      </trkpt>
      <trkpt lat="44.78302" lon="3.87339">
        <ele>1224.44</ele>
        <time>2023-09-07T13:10:39Z</time>
      </trkpt>
      <trkpt lat="44.78299" lon="3.87366">
        <ele>1223.44</ele>
        <time>2023-09-07T13:10:55Z</time>
      </trkpt>
      <trkpt lat="44.78294" lon="3.87393">
        <ele>1224.44</ele>
        <time>2023-09-07T13:11:11Z</time>
      </trkpt>
      <trkpt lat="44.7829" lon="3.87419">
        <ele>1223.44</ele>
        <time>2023-09-07T13:11:27Z</time>
      </trkpt>
      <trkpt lat="44.78286" lon="3.87445">
        <ele>1224.44</ele>
        <time>2023-09-07T13:11:43Z</time>
      </trkpt>
      <trkpt lat="44.78282" lon="3.87474">
        <ele>1224.44</ele>
        <time>2023-09-07T13:11:59Z</time>
      </trkpt>
      <trkpt lat="44.78281" lon="3.875">
        <ele>1225.44</ele>
        <time>2023-09-07T13:12:15Z</time>
      </trkpt>
      <trkpt lat="44.78287" lon="3.87531">
        <ele>1225.44</ele>
        <time>2023-09-07T13:12:36Z</time>
      </trkpt>
      <trkpt lat="44.78295" lon="3.87555">
        <ele>1225.44</ele>
        <time>2023-09-07T13:12:52Z</time>
      </trkpt>
      <trkpt lat="44.78301" lon="3.8758">
        <ele>1226.44</ele>
        <time>2023-09-07T13:13:08Z</time>
      </trkpt>
      <trkpt lat="44.78303" lon="3.87606">
        <ele>1226.44</ele>
        <time>2023-09-07T13:13:32Z</time>
      </trkpt>
      <trkpt lat="44.78299" lon="3.87637">
        <ele>1226.44</ele>
        <time>2023-09-07T13:15:24Z</time>
      </trkpt>
      <trkpt lat="44.78296" lon="3.87663">
        <ele>1227.44</ele>
        <time>2023-09-07T13:15:44Z</time>
      </trkpt>
      <trkpt lat="44.78294" lon="3.87689">
        <ele>1228.44</ele>
        <time>2023-09-07T13:16:00Z</time>
      </trkpt>
      <trkpt lat="44.7829" lon="3.87719">
        <ele>1230.44</ele>
        <time>2023-09-07T13:16:20Z</time>
      </trkpt>
      <trkpt lat="44.78293" lon="3.87747">
        <ele>1231.44</ele>
        <time>2023-09-07T13:16:36Z</time>
      </trkpt>
      <trkpt lat="44.78297" lon="3.87772">
        <ele>1232.44</ele>
        <time>2023-09-07T13:16:52Z</time>
      </trkpt>
      <trkpt lat="44.78306" lon="3.87802">
        <ele>1233.44</ele>
        <time>2023-09-07T13:17:12Z</time>
      </trkpt>
      <trkpt lat="44.78314" lon="3.87825">
        <ele>1233.44</ele>
        <time>2023-09-07T13:17:28Z</time>
      </trkpt>
      <trkpt lat="44.78321" lon="3.8785">
        <ele>1235.44</ele>
        <time>2023-09-07T13:17:44Z</time>
      </trkpt>
      <trkpt lat="44.78332" lon="3.87871">
        <ele>1236.44</ele>
        <time>2023-09-07T13:18:00Z</time>
      </trkpt>
      <trkpt lat="44.78341" lon="3.87895">
        <ele>1236.44</ele>
        <time>2023-09-07T13:18:16Z</time>
      </trkpt>
      <trkpt lat="44.78352" lon="3.87917">
        <ele>1236.44</ele>
        <time>2023-09-07T13:18:32Z</time>
      </trkpt>
      <trkpt lat="44.78362" lon="3.87944">
        <ele>1235.44</ele>
        <time>2023-09-07T13:18:52Z</time>
      </trkpt>
      <trkpt lat="44.78365" lon="3.87972">
        <ele>1238.44</ele>
        <time>2023-09-07T13:19:08Z</time>
      </trkpt>
      <trkpt lat="44.78372" lon="3.87997">
        <ele>1239.44</ele>
        <time>2023-09-07T13:19:24Z</time>
      </trkpt>
      <trkpt lat="44.78378" lon="3.88022">
        <ele>1237.44</ele>
        <time>2023-09-07T13:19:40Z</time>
      </trkpt>
      <trkpt lat="44.78388" lon="3.88045">
        <ele>1236.44</ele>
        <time>2023-09-07T13:19:56Z</time>
      </trkpt>
      <trkpt lat="44.78396" lon="3.88071">
        <ele>1235.44</ele>
        <time>2023-09-07T13:20:16Z</time>
      </trkpt>
      <trkpt lat="44.78407" lon="3.88093">
        <ele>1235.44</ele>
        <time>2023-09-07T13:20:32Z</time>
      </trkpt>
      <trkpt lat="44.78396" lon="3.88113">
        <ele>1235.44</ele>
        <time>2023-09-07T13:21:16Z</time>
      </trkpt>
      <trkpt lat="44.78378" lon="3.88112">
        <ele>1234.44</ele>
        <time>2023-09-07T13:21:32Z</time>
      </trkpt>
      <trkpt lat="44.78355" lon="3.8811">
        <ele>1234.44</ele>
        <time>2023-09-07T13:21:52Z</time>
      </trkpt>
      <trkpt lat="44.78337" lon="3.88107">
        <ele>1234.44</ele>
        <time>2023-09-07T13:22:08Z</time>
      </trkpt>
      <trkpt lat="44.78317" lon="3.88106">
        <ele>1236.44</ele>
        <time>2023-09-07T13:22:24Z</time>
      </trkpt>
      <trkpt lat="44.78298" lon="3.88109">
        <ele>1235.44</ele>
        <time>2023-09-07T13:22:40Z</time>
      </trkpt>
      <trkpt lat="44.78274" lon="3.88107">
        <ele>1244.44</ele>
        <time>2023-09-07T13:22:56Z</time>
      </trkpt>
      <trkpt lat="44.78257" lon="3.8812">
        <ele>1238.44</ele>
        <time>2023-09-07T13:23:12Z</time>
      </trkpt>
      <trkpt lat="44.78239" lon="3.88127">
        <ele>1235.44</ele>
        <time>2023-09-07T13:23:28Z</time>
      </trkpt>
      <trkpt lat="44.78221" lon="3.88136">
        <ele>1234.44</ele>
        <time>2023-09-07T13:23:48Z</time>
      </trkpt>
      <trkpt lat="44.78203" lon="3.88146">
        <ele>1233.44</ele>
        <time>2023-09-07T13:24:04Z</time>
      </trkpt>
      <trkpt lat="44.78184" lon="3.88164">
        <ele>1232.44</ele>
        <time>2023-09-07T13:24:24Z</time>
      </trkpt>
      <trkpt lat="44.78168" lon="3.88178">
        <ele>1231.44</ele>
        <time>2023-09-07T13:24:40Z</time>
      </trkpt>
      <trkpt lat="44.7815" lon="3.88196">
        <ele>1230.44</ele>
        <time>2023-09-07T13:25:00Z</time>
      </trkpt>
      <trkpt lat="44.78132" lon="3.88216">
        <ele>1230.44</ele>
        <time>2023-09-07T13:25:20Z</time>
      </trkpt>
      <trkpt lat="44.78119" lon="3.88234">
        <ele>1230.44</ele>
        <time>2023-09-07T13:25:36Z</time>
      </trkpt>
      <trkpt lat="44.78103" lon="3.88247">
        <ele>1230.44</ele>
        <time>2023-09-07T13:25:52Z</time>
      </trkpt>
      <trkpt lat="44.78086" lon="3.88264">
        <ele>1229.44</ele>
        <time>2023-09-07T13:26:12Z</time>
      </trkpt>
      <trkpt lat="44.7807" lon="3.88278">
        <ele>1229.44</ele>
        <time>2023-09-07T13:26:28Z</time>
      </trkpt>
      <trkpt lat="44.78053" lon="3.88295">
        <ele>1228.44</ele>
        <time>2023-09-07T13:26:44Z</time>
      </trkpt>
      <trkpt lat="44.78037" lon="3.88309">
        <ele>1227.44</ele>
        <time>2023-09-07T13:27:00Z</time>
      </trkpt>
      <trkpt lat="44.78023" lon="3.88326">
        <ele>1226.44</ele>
        <time>2023-09-07T13:27:16Z</time>
      </trkpt>
      <trkpt lat="44.78011" lon="3.88347">
        <ele>1226.44</ele>
        <time>2023-09-07T13:27:32Z</time>
      </trkpt>
      <trkpt lat="44.78002" lon="3.8837">
        <ele>1222.44</ele>
        <time>2023-09-07T13:27:48Z</time>
      </trkpt>
      <trkpt lat="44.77992" lon="3.88398">
        <ele>1218.44</ele>
        <time>2023-09-07T13:28:08Z</time>
      </trkpt>
      <trkpt lat="44.77982" lon="3.88422">
        <ele>1216.44</ele>
        <time>2023-09-07T13:28:25Z</time>
      </trkpt>
      <trkpt lat="44.77972" lon="3.88445">
        <ele>1214.44</ele>
        <time>2023-09-07T13:28:41Z</time>
      </trkpt>
      <trkpt lat="44.77956" lon="3.88471">
        <ele>1209.44</ele>
        <time>2023-09-07T13:29:00Z</time>
      </trkpt>
      <trkpt lat="44.77943" lon="3.88493">
        <ele>1207.44</ele>
        <time>2023-09-07T13:29:17Z</time>
      </trkpt>
      <trkpt lat="44.77928" lon="3.88513">
        <ele>1206.44</ele>
        <time>2023-09-07T13:29:33Z</time>
      </trkpt>
      <trkpt lat="44.77914" lon="3.88533">
        <ele>1206.44</ele>
        <time>2023-09-07T13:29:49Z</time>
      </trkpt>
      <trkpt lat="44.779" lon="3.88554">
        <ele>1205.44</ele>
        <time>2023-09-07T13:30:09Z</time>
      </trkpt>
      <trkpt lat="44.77884" lon="3.88572">
        <ele>1205.44</ele>
        <time>2023-09-07T13:30:25Z</time>
      </trkpt>
      <trkpt lat="44.77875" lon="3.88601">
        <ele>1202.44</ele>
        <time>2023-09-07T13:30:45Z</time>
      </trkpt>
      <trkpt lat="44.77877" lon="3.88632">
        <ele>1199.44</ele>
        <time>2023-09-07T13:31:29Z</time>
      </trkpt>
      <trkpt lat="44.77881" lon="3.8866">
        <ele>1199.44</ele>
        <time>2023-09-07T13:31:45Z</time>
      </trkpt>
      <trkpt lat="44.7787" lon="3.88683">
        <ele>1196.44</ele>
        <time>2023-09-07T13:32:05Z</time>
      </trkpt>
      <trkpt lat="44.77852" lon="3.8869">
        <ele>1195.44</ele>
        <time>2023-09-07T13:32:21Z</time>
      </trkpt>
      <trkpt lat="44.77831" lon="3.88696">
        <ele>1195.44</ele>
        <time>2023-09-07T13:32:37Z</time>
      </trkpt>
      <trkpt lat="44.77811" lon="3.88703">
        <ele>1194.44</ele>
        <time>2023-09-07T13:32:53Z</time>
      </trkpt>
      <trkpt lat="44.77791" lon="3.88711">
        <ele>1193.44</ele>
        <time>2023-09-07T13:33:33Z</time>
      </trkpt>
      <trkpt lat="44.7777" lon="3.88711">
        <ele>1194.44</ele>
        <time>2023-09-07T13:33:49Z</time>
      </trkpt>
      <trkpt lat="44.77749" lon="3.88712">
        <ele>1196.44</ele>
        <time>2023-09-07T13:34:05Z</time>
      </trkpt>
      <trkpt lat="44.7773" lon="3.88712">
        <ele>1197.44</ele>
        <time>2023-09-07T13:34:21Z</time>
      </trkpt>
      <trkpt lat="44.77709" lon="3.8871">
        <ele>1199.44</ele>
        <time>2023-09-07T13:34:41Z</time>
      </trkpt>
      <trkpt lat="44.7769" lon="3.8871">
        <ele>1200.44</ele>
        <time>2023-09-07T13:34:57Z</time>
      </trkpt>
      <trkpt lat="44.7767" lon="3.8871">
        <ele>1198.44</ele>
        <time>2023-09-07T13:35:13Z</time>
      </trkpt>
      <trkpt lat="44.77652" lon="3.88718">
        <ele>1196.44</ele>
        <time>2023-09-07T13:35:29Z</time>
      </trkpt>
      <trkpt lat="44.77633" lon="3.88725">
        <ele>1198.44</ele>
        <time>2023-09-07T13:35:45Z</time>
      </trkpt>
      <trkpt lat="44.77615" lon="3.88732">
        <ele>1200.44</ele>
        <time>2023-09-07T13:36:01Z</time>
      </trkpt>
      <trkpt lat="44.7759" lon="3.88735">
        <ele>1200.44</ele>
        <time>2023-09-07T13:36:21Z</time>
      </trkpt>
      <trkpt lat="44.77571" lon="3.8873">
        <ele>1196.44</ele>
        <time>2023-09-07T13:36:37Z</time>
      </trkpt>
      <trkpt lat="44.77551" lon="3.88725">
        <ele>1195.44</ele>
        <time>2023-09-07T13:36:53Z</time>
      </trkpt>
      <trkpt lat="44.7753" lon="3.88722">
        <ele>1193.44</ele>
        <time>2023-09-07T13:37:21Z</time>
      </trkpt>
      <trkpt lat="44.77538" lon="3.88745">
        <ele>1196.44</ele>
        <time>2023-09-07T13:39:45Z</time>
      </trkpt>
      <trkpt lat="44.77535" lon="3.88774">
        <ele>1199.44</ele>
        <time>2023-09-07T13:42:22Z</time>
      </trkpt>
      <trkpt lat="44.77544" lon="3.88797">
        <ele>1201.44</ele>
        <time>2023-09-07T13:42:42Z</time>
      </trkpt>
      <trkpt lat="44.77553" lon="3.88765">
        <ele>1206.44</ele>
        <time>2023-09-07T13:48:59Z</time>
      </trkpt>
      <trkpt lat="44.77537" lon="3.88787">
        <ele>1205.44</ele>
        <time>2023-09-07T13:49:07Z</time>
      </trkpt>
      <trkpt lat="44.7752" lon="3.88795">
        <ele>1201.44</ele>
        <time>2023-09-07T13:49:59Z</time>
      </trkpt>
      <trkpt lat="44.77508" lon="3.88818">
        <ele>1199.44</ele>
        <time>2023-09-07T13:50:15Z</time>
      </trkpt>
      <trkpt lat="44.7752" lon="3.88794">
        <ele>1199.44</ele>
        <time>2023-09-07T13:50:43Z</time>
      </trkpt>
      <trkpt lat="44.77507" lon="3.88817">
        <ele>1200.44</ele>
        <time>2023-09-07T14:05:41Z</time>
      </trkpt>
      <trkpt lat="44.77506" lon="3.88842">
        <ele>1203.44</ele>
        <time>2023-09-07T14:08:13Z</time>
      </trkpt>
      <trkpt lat="44.77522" lon="3.88857">
        <ele>1203.44</ele>
        <time>2023-09-07T14:08:33Z</time>
      </trkpt>
      <trkpt lat="44.77536" lon="3.88875">
        <ele>1206.44</ele>
        <time>2023-09-07T14:08:49Z</time>
      </trkpt>
      <trkpt lat="44.77552" lon="3.88889">
        <ele>1205.44</ele>
        <time>2023-09-07T14:09:05Z</time>
      </trkpt>
      <trkpt lat="44.7757" lon="3.88896">
        <ele>1207.44</ele>
        <time>2023-09-07T14:09:21Z</time>
      </trkpt>
      <trkpt lat="44.77591" lon="3.88894">
        <ele>1209.44</ele>
        <time>2023-09-07T14:09:41Z</time>
      </trkpt>
      <trkpt lat="44.77612" lon="3.889">
        <ele>1210.44</ele>
        <time>2023-09-07T14:10:01Z</time>
      </trkpt>
      <trkpt lat="44.7763" lon="3.88912">
        <ele>1212.44</ele>
        <time>2023-09-07T14:10:33Z</time>
      </trkpt>
      <trkpt lat="44.77647" lon="3.88926">
        <ele>1211.44</ele>
        <time>2023-09-07T14:10:53Z</time>
      </trkpt>
      <trkpt lat="44.77664" lon="3.8894">
        <ele>1212.44</ele>
        <time>2023-09-07T14:11:13Z</time>
      </trkpt>
      <trkpt lat="44.77684" lon="3.88948">
        <ele>1214.44</ele>
        <time>2023-09-07T14:12:21Z</time>
      </trkpt>
      <trkpt lat="44.77703" lon="3.8896">
        <ele>1215.44</ele>
        <time>2023-09-07T14:12:41Z</time>
      </trkpt>
      <trkpt lat="44.77719" lon="3.88971">
        <ele>1217.44</ele>
        <time>2023-09-07T14:12:57Z</time>
      </trkpt>
      <trkpt lat="44.77733" lon="3.88996">
        <ele>1217.44</ele>
        <time>2023-09-07T14:13:21Z</time>
      </trkpt>
      <trkpt lat="44.77745" lon="3.89018">
        <ele>1217.44</ele>
        <time>2023-09-07T14:13:41Z</time>
      </trkpt>
      <trkpt lat="44.77757" lon="3.89041">
        <ele>1220.44</ele>
        <time>2023-09-07T14:14:01Z</time>
      </trkpt>
      <trkpt lat="44.77773" lon="3.89058">
        <ele>1223.44</ele>
        <time>2023-09-07T14:14:21Z</time>
      </trkpt>
      <trkpt lat="44.77788" lon="3.89081">
        <ele>1223.44</ele>
        <time>2023-09-07T14:14:41Z</time>
      </trkpt>
      <trkpt lat="44.77803" lon="3.89099">
        <ele>1223.44</ele>
        <time>2023-09-07T14:15:01Z</time>
      </trkpt>
      <trkpt lat="44.7782" lon="3.89118">
        <ele>1224.44</ele>
        <time>2023-09-07T14:15:21Z</time>
      </trkpt>
      <trkpt lat="44.77836" lon="3.89138">
        <ele>1227.44</ele>
        <time>2023-09-07T14:15:41Z</time>
      </trkpt>
      <trkpt lat="44.77851" lon="3.89159">
        <ele>1227.44</ele>
        <time>2023-09-07T14:16:01Z</time>
      </trkpt>
      <trkpt lat="44.77868" lon="3.89174">
        <ele>1229.44</ele>
        <time>2023-09-07T14:16:21Z</time>
      </trkpt>
      <trkpt lat="44.77886" lon="3.89187">
        <ele>1231.44</ele>
        <time>2023-09-07T14:16:41Z</time>
      </trkpt>
      <trkpt lat="44.77904" lon="3.89199">
        <ele>1234.44</ele>
        <time>2023-09-07T14:17:01Z</time>
      </trkpt>
      <trkpt lat="44.77922" lon="3.89212">
        <ele>1235.44</ele>
        <time>2023-09-07T14:17:21Z</time>
      </trkpt>
      <trkpt lat="44.77938" lon="3.89225">
        <ele>1236.44</ele>
        <time>2023-09-07T14:17:42Z</time>
      </trkpt>
      <trkpt lat="44.77956" lon="3.89237">
        <ele>1241.44</ele>
        <time>2023-09-07T14:18:07Z</time>
      </trkpt>
      <trkpt lat="44.77973" lon="3.8925">
        <ele>1244.44</ele>
        <time>2023-09-07T14:18:35Z</time>
      </trkpt>
      <trkpt lat="44.77994" lon="3.89258">
        <ele>1247.44</ele>
        <time>2023-09-07T14:20:19Z</time>
      </trkpt>
      <trkpt lat="44.78013" lon="3.89256">
        <ele>1248.44</ele>
        <time>2023-09-07T14:20:39Z</time>
      </trkpt>
      <trkpt lat="44.78001" lon="3.89233">
        <ele>1258.44</ele>
        <time>2023-09-07T14:21:44Z</time>
      </trkpt>
      <trkpt lat="44.77978" lon="3.89182">
        <ele>1312.44</ele>
        <time>2023-09-07T14:22:18Z</time>
      </trkpt>
      <trkpt lat="44.77993" lon="3.89202">
        <ele>1297.44</ele>
        <time>2023-09-07T14:22:27Z</time>
      </trkpt>
      <trkpt lat="44.78005" lon="3.89227">
        <ele>1274.44</ele>
        <time>2023-09-07T14:22:35Z</time>
      </trkpt>
      <trkpt lat="44.78009" lon="3.89252">
        <ele>1258.44</ele>
        <time>2023-09-07T14:23:11Z</time>
      </trkpt>
      <trkpt lat="44.78023" lon="3.89271">
        <ele>1248.44</ele>
        <time>2023-09-07T14:24:23Z</time>
      </trkpt>
    </trkseg>
  </trk>
</gpx>